<?xml version="1.0" encoding="UTF-8" standalone="no" ?>
<gpx xmlns="http://www.topografix.com/GPX/1/1" xmlns:xsi="http://www.w3.org/2001/XMLSchema-instance" xsi:schemaLocation="http://www.topografix.com/GPX/1/1 http://www.topografix.com/GPX/1/1/gpx.xsd" version="1.1" creator="VisuGPX - https://www.visugpx.com">
  <metadata>
    <name>partie circuit 33km rando vtt lure 2022</name>
  </metadata>
  <trk>
    <name><![CDATA[partie circuit 33km rando vtt lure 2022_1]]></name>
    <trkseg>
      <trkpt lat="47.69704" lon="6.61271">
        <ele>332.5</ele>
        <time>2022-08-21T07:02:35.000Z</time>
      </trkpt>
      <trkpt lat="47.69692" lon="6.613">
        <ele>333</ele>
        <time>2022-08-21T07:02:46.000Z</time>
      </trkpt>
      <trkpt lat="47.69695" lon="6.61297">
        <ele>333</ele>
        <time>2022-08-21T07:02:47.000Z</time>
      </trkpt>
      <trkpt lat="47.69692" lon="6.61275">
        <ele>332.8</ele>
        <time>2022-08-21T07:02:57.000Z</time>
      </trkpt>
      <trkpt lat="47.6967" lon="6.61261">
        <ele>332</ele>
        <time>2022-08-21T07:03:11.000Z</time>
      </trkpt>
      <trkpt lat="47.69657" lon="6.61186">
        <ele>332</ele>
        <time>2022-08-21T07:03:25.000Z</time>
      </trkpt>
      <trkpt lat="47.69645" lon="6.6109">
        <ele>331.2</ele>
        <time>2022-08-21T07:03:38.000Z</time>
      </trkpt>
      <trkpt lat="47.69637" lon="6.6105">
        <ele>331</ele>
        <time>2022-08-21T07:03:43.000Z</time>
      </trkpt>
      <trkpt lat="47.69609" lon="6.6097">
        <ele>331</ele>
        <time>2022-08-21T07:03:54.000Z</time>
      </trkpt>
      <trkpt lat="47.69598" lon="6.60954">
        <ele>330.7</ele>
        <time>2022-08-21T07:03:57.000Z</time>
      </trkpt>
      <trkpt lat="47.69585" lon="6.60945">
        <ele>330.1</ele>
        <time>2022-08-21T07:04:00.000Z</time>
      </trkpt>
      <trkpt lat="47.6956" lon="6.60946">
        <ele>329.2</ele>
        <time>2022-08-21T07:04:05.000Z</time>
      </trkpt>
      <trkpt lat="47.69499" lon="6.60975">
        <ele>329.9</ele>
        <time>2022-08-21T07:04:17.000Z</time>
      </trkpt>
      <trkpt lat="47.69386" lon="6.6106">
        <ele>330</ele>
        <time>2022-08-21T07:04:42.000Z</time>
      </trkpt>
      <trkpt lat="47.69359" lon="6.61076">
        <ele>330</ele>
        <time>2022-08-21T07:04:48.000Z</time>
      </trkpt>
      <trkpt lat="47.69335" lon="6.6108">
        <ele>330</ele>
        <time>2022-08-21T07:04:53.000Z</time>
      </trkpt>
      <trkpt lat="47.69278" lon="6.61074">
        <ele>330</ele>
        <time>2022-08-21T07:05:05.000Z</time>
      </trkpt>
      <trkpt lat="47.6921" lon="6.61099">
        <ele>330.6</ele>
        <time>2022-08-21T07:05:19.000Z</time>
      </trkpt>
      <trkpt lat="47.69191" lon="6.61101">
        <ele>330.6</ele>
        <time>2022-08-21T07:05:23.000Z</time>
      </trkpt>
      <trkpt lat="47.69174" lon="6.61094">
        <ele>330.1</ele>
        <time>2022-08-21T07:05:27.000Z</time>
      </trkpt>
      <trkpt lat="47.69126" lon="6.61058">
        <ele>331</ele>
        <time>2022-08-21T07:05:39.000Z</time>
      </trkpt>
      <trkpt lat="47.69101" lon="6.61046">
        <ele>331.5</ele>
        <time>2022-08-21T07:05:44.000Z</time>
      </trkpt>
      <trkpt lat="47.69076" lon="6.61038">
        <ele>332.2</ele>
        <time>2022-08-21T07:05:49.000Z</time>
      </trkpt>
      <trkpt lat="47.68973" lon="6.61022">
        <ele>340</ele>
        <time>2022-08-21T07:06:19.000Z</time>
      </trkpt>
      <trkpt lat="47.68903" lon="6.60991">
        <ele>343</ele>
        <time>2022-08-21T07:06:41.000Z</time>
      </trkpt>
      <trkpt lat="47.68807" lon="6.60931">
        <ele>348</ele>
        <time>2022-08-21T07:07:13.000Z</time>
      </trkpt>
      <trkpt lat="47.68774" lon="6.60898">
        <ele>349</ele>
        <time>2022-08-21T07:07:29.000Z</time>
      </trkpt>
      <trkpt lat="47.68753" lon="6.60866">
        <ele>350</ele>
        <time>2022-08-21T07:07:44.000Z</time>
      </trkpt>
      <trkpt lat="47.68733" lon="6.60853">
        <ele>351.8</ele>
        <time>2022-08-21T07:07:52.000Z</time>
      </trkpt>
      <trkpt lat="47.68691" lon="6.60839">
        <ele>355.2</ele>
        <time>2022-08-21T07:08:10.000Z</time>
      </trkpt>
      <trkpt lat="47.68635" lon="6.60854">
        <ele>355.7</ele>
        <time>2022-08-21T07:08:32.000Z</time>
      </trkpt>
      <trkpt lat="47.68597" lon="6.60855">
        <ele>357.6</ele>
        <time>2022-08-21T07:08:47.000Z</time>
      </trkpt>
      <trkpt lat="47.68588" lon="6.60851">
        <ele>357.9</ele>
        <time>2022-08-21T07:08:51.000Z</time>
      </trkpt>
      <trkpt lat="47.68586" lon="6.60842">
        <ele>358</ele>
        <time>2022-08-21T07:08:55.000Z</time>
      </trkpt>
      <trkpt lat="47.68591" lon="6.6083">
        <ele>358.1</ele>
        <time>2022-08-21T07:08:59.000Z</time>
      </trkpt>
      <trkpt lat="47.68647" lon="6.60768">
        <ele>360.8</ele>
        <time>2022-08-21T07:09:23.000Z</time>
      </trkpt>
      <trkpt lat="47.68657" lon="6.6075">
        <ele>361</ele>
        <time>2022-08-21T07:09:28.000Z</time>
      </trkpt>
      <trkpt lat="47.68667" lon="6.60718">
        <ele>361.2</ele>
        <time>2022-08-21T07:09:35.000Z</time>
      </trkpt>
      <trkpt lat="47.68708" lon="6.60539">
        <ele>370.1</ele>
        <time>2022-08-21T07:10:17.000Z</time>
      </trkpt>
      <trkpt lat="47.68719" lon="6.60463">
        <ele>373.9</ele>
        <time>2022-08-21T07:10:42.000Z</time>
      </trkpt>
      <trkpt lat="47.68761" lon="6.60289">
        <ele>375.6</ele>
        <time>2022-08-21T07:11:23.000Z</time>
      </trkpt>
      <trkpt lat="47.6878" lon="6.60167">
        <ele>373</ele>
        <time>2022-08-21T07:11:40.000Z</time>
      </trkpt>
      <trkpt lat="47.68781" lon="6.60152">
        <ele>372.5</ele>
        <time>2022-08-21T07:11:43.000Z</time>
      </trkpt>
      <trkpt lat="47.68778" lon="6.60143">
        <ele>372.1</ele>
        <time>2022-08-21T07:11:46.000Z</time>
      </trkpt>
      <trkpt lat="47.68725" lon="6.60115">
        <ele>371.1</ele>
        <time>2022-08-21T07:12:01.000Z</time>
      </trkpt>
      <trkpt lat="47.68668" lon="6.60095">
        <ele>370.4</ele>
        <time>2022-08-21T07:12:16.000Z</time>
      </trkpt>
      <trkpt lat="47.68619" lon="6.60068">
        <ele>369.1</ele>
        <time>2022-08-21T07:12:27.000Z</time>
      </trkpt>
      <trkpt lat="47.68406" lon="6.59974">
        <ele>358.6</ele>
        <time>2022-08-21T07:13:02.000Z</time>
      </trkpt>
      <trkpt lat="47.68388" lon="6.59977">
        <ele>358</ele>
        <time>2022-08-21T07:13:06.000Z</time>
      </trkpt>
      <trkpt lat="47.68378" lon="6.59987">
        <ele>357.2</ele>
        <time>2022-08-21T07:13:09.000Z</time>
      </trkpt>
      <trkpt lat="47.68335" lon="6.60076">
        <ele>355.8</ele>
        <time>2022-08-21T07:13:22.000Z</time>
      </trkpt>
      <trkpt lat="47.68321" lon="6.60097">
        <ele>355.1</ele>
        <time>2022-08-21T07:13:26.000Z</time>
      </trkpt>
      <trkpt lat="47.68304" lon="6.60109">
        <ele>353.9</ele>
        <time>2022-08-21T07:13:30.000Z</time>
      </trkpt>
      <trkpt lat="47.68284" lon="6.60105">
        <ele>352.5</ele>
        <time>2022-08-21T07:13:35.000Z</time>
      </trkpt>
      <trkpt lat="47.68161" lon="6.59992">
        <ele>349.9</ele>
        <time>2022-08-21T07:14:07.000Z</time>
      </trkpt>
      <trkpt lat="47.68112" lon="6.5994">
        <ele>349.2</ele>
        <time>2022-08-21T07:14:19.000Z</time>
      </trkpt>
      <trkpt lat="47.68052" lon="6.5987">
        <ele>348.4</ele>
        <time>2022-08-21T07:14:32.000Z</time>
      </trkpt>
      <trkpt lat="47.67966" lon="6.59742">
        <ele>348.8</ele>
        <time>2022-08-21T07:14:52.000Z</time>
      </trkpt>
      <trkpt lat="47.67886" lon="6.59616">
        <ele>349.7</ele>
        <time>2022-08-21T07:15:14.000Z</time>
      </trkpt>
      <trkpt lat="47.67876" lon="6.59595">
        <ele>349.5</ele>
        <time>2022-08-21T07:15:18.000Z</time>
      </trkpt>
      <trkpt lat="47.67874" lon="6.59583">
        <ele>349.5</ele>
        <time>2022-08-21T07:15:21.000Z</time>
      </trkpt>
      <trkpt lat="47.67878" lon="6.59573">
        <ele>349.8</ele>
        <time>2022-08-21T07:15:24.000Z</time>
      </trkpt>
      <trkpt lat="47.67918" lon="6.59542">
        <ele>350.5</ele>
        <time>2022-08-21T07:15:35.000Z</time>
      </trkpt>
      <trkpt lat="47.67987" lon="6.59473">
        <ele>349</ele>
        <time>2022-08-21T07:15:58.000Z</time>
      </trkpt>
      <trkpt lat="47.68039" lon="6.59411">
        <ele>346.9</ele>
        <time>2022-08-21T07:16:09.000Z</time>
      </trkpt>
      <trkpt lat="47.68077" lon="6.59353">
        <ele>345.6</ele>
        <time>2022-08-21T07:16:17.000Z</time>
      </trkpt>
      <trkpt lat="47.68109" lon="6.59296">
        <ele>344.6</ele>
        <time>2022-08-21T07:16:24.000Z</time>
      </trkpt>
      <trkpt lat="47.68202" lon="6.59105">
        <ele>341.2</ele>
        <time>2022-08-21T07:16:45.000Z</time>
      </trkpt>
      <trkpt lat="47.68235" lon="6.59029">
        <ele>340</ele>
        <time>2022-08-21T07:16:53.000Z</time>
      </trkpt>
      <trkpt lat="47.68252" lon="6.58967">
        <ele>339.1</ele>
        <time>2022-08-21T07:16:59.000Z</time>
      </trkpt>
      <trkpt lat="47.68269" lon="6.58858">
        <ele>337.9</ele>
        <time>2022-08-21T07:17:09.000Z</time>
      </trkpt>
      <trkpt lat="47.68288" lon="6.58779">
        <ele>336</ele>
        <time>2022-08-21T07:17:21.000Z</time>
      </trkpt>
      <trkpt lat="47.68222" lon="6.58715">
        <ele>336</ele>
        <time>2022-08-21T07:17:45.000Z</time>
      </trkpt>
      <trkpt lat="47.68164" lon="6.58667">
        <ele>335</ele>
        <time>2022-08-21T07:18:00.000Z</time>
      </trkpt>
      <trkpt lat="47.68135" lon="6.58634">
        <ele>334.7</ele>
        <time>2022-08-21T07:18:08.000Z</time>
      </trkpt>
      <trkpt lat="47.6813" lon="6.58623">
        <ele>334.3</ele>
        <time>2022-08-21T07:18:11.000Z</time>
      </trkpt>
      <trkpt lat="47.6813" lon="6.58612">
        <ele>334</ele>
        <time>2022-08-21T07:18:14.000Z</time>
      </trkpt>
      <trkpt lat="47.68151" lon="6.58528">
        <ele>333.4</ele>
        <time>2022-08-21T07:18:31.000Z</time>
      </trkpt>
      <trkpt lat="47.68172" lon="6.5842">
        <ele>333</ele>
        <time>2022-08-21T07:18:51.000Z</time>
      </trkpt>
      <trkpt lat="47.68213" lon="6.58284">
        <ele>333</ele>
        <time>2022-08-21T07:19:17.000Z</time>
      </trkpt>
      <trkpt lat="47.68253" lon="6.58101">
        <ele>329.5</ele>
        <time>2022-08-21T07:19:45.000Z</time>
      </trkpt>
      <trkpt lat="47.68273" lon="6.58032">
        <ele>328</ele>
        <time>2022-08-21T07:19:56.000Z</time>
      </trkpt>
      <trkpt lat="47.6828" lon="6.57983">
        <ele>327.1</ele>
        <time>2022-08-21T07:20:06.000Z</time>
      </trkpt>
      <trkpt lat="47.68287" lon="6.57956">
        <ele>327.3</ele>
        <time>2022-08-21T07:20:12.000Z</time>
      </trkpt>
      <trkpt lat="47.68298" lon="6.57924">
        <ele>327.7</ele>
        <time>2022-08-21T07:20:21.000Z</time>
      </trkpt>
      <trkpt lat="47.68309" lon="6.57907">
        <ele>328.1</ele>
        <time>2022-08-21T07:20:28.000Z</time>
      </trkpt>
      <trkpt lat="47.68335" lon="6.5788">
        <ele>328.3</ele>
        <time>2022-08-21T07:20:40.000Z</time>
      </trkpt>
      <trkpt lat="47.68358" lon="6.57863">
        <ele>329</ele>
        <time>2022-08-21T07:20:50.000Z</time>
      </trkpt>
      <trkpt lat="47.68362" lon="6.57853">
        <ele>329</ele>
        <time>2022-08-21T07:20:54.000Z</time>
      </trkpt>
      <trkpt lat="47.6836" lon="6.57827">
        <ele>329</ele>
        <time>2022-08-21T07:21:00.000Z</time>
      </trkpt>
      <trkpt lat="47.68319" lon="6.57672">
        <ele>328</ele>
        <time>2022-08-21T07:21:26.000Z</time>
      </trkpt>
      <trkpt lat="47.68295" lon="6.57563">
        <ele>326.5</ele>
        <time>2022-08-21T07:21:40.000Z</time>
      </trkpt>
      <trkpt lat="47.68267" lon="6.57476">
        <ele>324.7</ele>
        <time>2022-08-21T07:21:50.000Z</time>
      </trkpt>
      <trkpt lat="47.68261" lon="6.57447">
        <ele>324</ele>
        <time>2022-08-21T07:21:53.000Z</time>
      </trkpt>
      <trkpt lat="47.68257" lon="6.57386">
        <ele>322</ele>
        <time>2022-08-21T07:21:59.000Z</time>
      </trkpt>
      <trkpt lat="47.68258" lon="6.5729">
        <ele>318.5</ele>
        <time>2022-08-21T07:22:08.000Z</time>
      </trkpt>
      <trkpt lat="47.68261" lon="6.57253">
        <ele>317.1</ele>
        <time>2022-08-21T07:22:13.000Z</time>
      </trkpt>
      <trkpt lat="47.68272" lon="6.5723">
        <ele>316.3</ele>
        <time>2022-08-21T07:22:16.000Z</time>
      </trkpt>
      <trkpt lat="47.68285" lon="6.57225">
        <ele>315.9</ele>
        <time>2022-08-21T07:22:19.000Z</time>
      </trkpt>
      <trkpt lat="47.68302" lon="6.57229">
        <ele>315.4</ele>
        <time>2022-08-21T07:22:22.000Z</time>
      </trkpt>
      <trkpt lat="47.68347" lon="6.57252">
        <ele>314.6</ele>
        <time>2022-08-21T07:22:29.000Z</time>
      </trkpt>
      <trkpt lat="47.68366" lon="6.57258">
        <ele>314.2</ele>
        <time>2022-08-21T07:22:32.000Z</time>
      </trkpt>
      <trkpt lat="47.68383" lon="6.57254">
        <ele>314</ele>
        <time>2022-08-21T07:22:35.000Z</time>
      </trkpt>
      <trkpt lat="47.68395" lon="6.57239">
        <ele>314.2</ele>
        <time>2022-08-21T07:22:38.000Z</time>
      </trkpt>
      <trkpt lat="47.68399" lon="6.57224">
        <ele>314.4</ele>
        <time>2022-08-21T07:22:40.000Z</time>
      </trkpt>
      <trkpt lat="47.684" lon="6.57197">
        <ele>314.8</ele>
        <time>2022-08-21T07:22:43.000Z</time>
      </trkpt>
      <trkpt lat="47.68385" lon="6.57117">
        <ele>313.9</ele>
        <time>2022-08-21T07:22:51.000Z</time>
      </trkpt>
      <trkpt lat="47.68384" lon="6.57075">
        <ele>313</ele>
        <time>2022-08-21T07:22:55.000Z</time>
      </trkpt>
      <trkpt lat="47.68396" lon="6.57024">
        <ele>312.2</ele>
        <time>2022-08-21T07:23:00.000Z</time>
      </trkpt>
      <trkpt lat="47.6842" lon="6.56971">
        <ele>312</ele>
        <time>2022-08-21T07:23:07.000Z</time>
      </trkpt>
      <trkpt lat="47.68423" lon="6.56951">
        <ele>312</ele>
        <time>2022-08-21T07:23:10.000Z</time>
      </trkpt>
      <trkpt lat="47.68421" lon="6.56932">
        <ele>312</ele>
        <time>2022-08-21T07:23:13.000Z</time>
      </trkpt>
      <trkpt lat="47.68402" lon="6.56865">
        <ele>312</ele>
        <time>2022-08-21T07:23:24.000Z</time>
      </trkpt>
      <trkpt lat="47.68377" lon="6.56823">
        <ele>311.3</ele>
        <time>2022-08-21T07:23:34.000Z</time>
      </trkpt>
      <trkpt lat="47.68322" lon="6.56711">
        <ele>310.8</ele>
        <time>2022-08-21T07:23:52.000Z</time>
      </trkpt>
      <trkpt lat="47.68282" lon="6.56654">
        <ele>310.4</ele>
        <time>2022-08-21T07:24:02.000Z</time>
      </trkpt>
      <trkpt lat="47.68252" lon="6.5662">
        <ele>310.3</ele>
        <time>2022-08-21T07:24:09.000Z</time>
      </trkpt>
      <trkpt lat="47.68218" lon="6.56594">
        <ele>310</ele>
        <time>2022-08-21T07:24:16.000Z</time>
      </trkpt>
      <trkpt lat="47.681" lon="6.56526">
        <ele>309.6</ele>
        <time>2022-08-21T07:24:39.000Z</time>
      </trkpt>
      <trkpt lat="47.68073" lon="6.56498">
        <ele>309.6</ele>
        <time>2022-08-21T07:24:45.000Z</time>
      </trkpt>
      <trkpt lat="47.68041" lon="6.56452">
        <ele>309</ele>
        <time>2022-08-21T07:24:53.000Z</time>
      </trkpt>
      <trkpt lat="47.68023" lon="6.56411">
        <ele>309</ele>
        <time>2022-08-21T07:24:59.000Z</time>
      </trkpt>
      <trkpt lat="47.67979" lon="6.56278">
        <ele>308.2</ele>
        <time>2022-08-21T07:25:17.000Z</time>
      </trkpt>
      <trkpt lat="47.67891" lon="6.56061">
        <ele>308</ele>
        <time>2022-08-21T07:25:47.000Z</time>
      </trkpt>
      <trkpt lat="47.67747" lon="6.55721">
        <ele>306</ele>
        <time>2022-08-21T07:26:39.000Z</time>
      </trkpt>
      <trkpt lat="47.67728" lon="6.55692">
        <ele>306</ele>
        <time>2022-08-21T07:26:44.000Z</time>
      </trkpt>
      <trkpt lat="47.6763" lon="6.55576">
        <ele>305</ele>
        <time>2022-08-21T07:27:07.000Z</time>
      </trkpt>
      <trkpt lat="47.67606" lon="6.55543">
        <ele>305</ele>
        <time>2022-08-21T07:27:13.000Z</time>
      </trkpt>
      <trkpt lat="47.67538" lon="6.554">
        <ele>304.4</ele>
        <time>2022-08-21T07:27:34.000Z</time>
      </trkpt>
      <trkpt lat="47.67494" lon="6.5532">
        <ele>304</ele>
        <time>2022-08-21T07:27:46.000Z</time>
      </trkpt>
      <trkpt lat="47.67441" lon="6.55232">
        <ele>304</ele>
        <time>2022-08-21T07:28:00.000Z</time>
      </trkpt>
      <trkpt lat="47.6739" lon="6.55129">
        <ele>303.6</ele>
        <time>2022-08-21T07:28:16.000Z</time>
      </trkpt>
      <trkpt lat="47.67377" lon="6.55117">
        <ele>303.5</ele>
        <time>2022-08-21T07:28:19.000Z</time>
      </trkpt>
      <trkpt lat="47.67363" lon="6.5511">
        <ele>303.9</ele>
        <time>2022-08-21T07:28:22.000Z</time>
      </trkpt>
      <trkpt lat="47.6727" lon="6.55092">
        <ele>303</ele>
        <time>2022-08-21T07:28:41.000Z</time>
      </trkpt>
      <trkpt lat="47.67241" lon="6.55081">
        <ele>303</ele>
        <time>2022-08-21T07:28:46.000Z</time>
      </trkpt>
      <trkpt lat="47.67095" lon="6.54973">
        <ele>302</ele>
        <time>2022-08-21T07:29:23.000Z</time>
      </trkpt>
      <trkpt lat="47.67076" lon="6.54962">
        <ele>302</ele>
        <time>2022-08-21T07:29:27.000Z</time>
      </trkpt>
      <trkpt lat="47.67057" lon="6.54963">
        <ele>302</ele>
        <time>2022-08-21T07:29:31.000Z</time>
      </trkpt>
      <trkpt lat="47.67022" lon="6.54988">
        <ele>302.5</ele>
        <time>2022-08-21T07:29:39.000Z</time>
      </trkpt>
      <trkpt lat="47.67004" lon="6.54985">
        <ele>302.1</ele>
        <time>2022-08-21T07:29:43.000Z</time>
      </trkpt>
      <trkpt lat="47.6697" lon="6.54953">
        <ele>302</ele>
        <time>2022-08-21T07:29:50.000Z</time>
      </trkpt>
      <trkpt lat="47.66879" lon="6.54842">
        <ele>301</ele>
        <time>2022-08-21T07:30:09.000Z</time>
      </trkpt>
      <trkpt lat="47.66849" lon="6.54811">
        <ele>300.6</ele>
        <time>2022-08-21T07:30:15.000Z</time>
      </trkpt>
      <trkpt lat="47.66797" lon="6.54777">
        <ele>300</ele>
        <time>2022-08-21T07:30:24.000Z</time>
      </trkpt>
      <trkpt lat="47.66731" lon="6.54761">
        <ele>300.3</ele>
        <time>2022-08-21T07:30:35.000Z</time>
      </trkpt>
      <trkpt lat="47.66709" lon="6.54751">
        <ele>300</ele>
        <time>2022-08-21T07:30:39.000Z</time>
      </trkpt>
      <trkpt lat="47.66679" lon="6.54726">
        <ele>299.6</ele>
        <time>2022-08-21T07:30:45.000Z</time>
      </trkpt>
      <trkpt lat="47.66658" lon="6.54697">
        <ele>299.4</ele>
        <time>2022-08-21T07:30:50.000Z</time>
      </trkpt>
      <trkpt lat="47.66646" lon="6.54669">
        <ele>300</ele>
        <time>2022-08-21T07:30:54.000Z</time>
      </trkpt>
      <trkpt lat="47.6664" lon="6.54637">
        <ele>300</ele>
        <time>2022-08-21T07:30:58.000Z</time>
      </trkpt>
      <trkpt lat="47.66644" lon="6.54527">
        <ele>300.5</ele>
        <time>2022-08-21T07:31:12.000Z</time>
      </trkpt>
      <trkpt lat="47.66649" lon="6.54505">
        <ele>300.7</ele>
        <time>2022-08-21T07:31:16.000Z</time>
      </trkpt>
      <trkpt lat="47.66666" lon="6.54489">
        <ele>299.1</ele>
        <time>2022-08-21T07:31:21.000Z</time>
      </trkpt>
      <trkpt lat="47.66759" lon="6.54437">
        <ele>300.7</ele>
        <time>2022-08-21T07:31:39.000Z</time>
      </trkpt>
      <trkpt lat="47.66797" lon="6.54401">
        <ele>300</ele>
        <time>2022-08-21T07:31:46.000Z</time>
      </trkpt>
      <trkpt lat="47.66817" lon="6.54367">
        <ele>300.3</ele>
        <time>2022-08-21T07:31:52.000Z</time>
      </trkpt>
      <trkpt lat="47.66831" lon="6.54336">
        <ele>301</ele>
        <time>2022-08-21T07:31:55.000Z</time>
      </trkpt>
      <trkpt lat="47.66864" lon="6.54246">
        <ele>301</ele>
        <time>2022-08-21T07:32:07.000Z</time>
      </trkpt>
      <trkpt lat="47.66868" lon="6.54229">
        <ele>301</ele>
        <time>2022-08-21T07:32:10.000Z</time>
      </trkpt>
      <trkpt lat="47.66867" lon="6.54221">
        <ele>301</ele>
        <time>2022-08-21T07:32:12.000Z</time>
      </trkpt>
      <trkpt lat="47.66861" lon="6.54211">
        <ele>300.6</ele>
        <time>2022-08-21T07:32:15.000Z</time>
      </trkpt>
      <trkpt lat="47.6685" lon="6.54203">
        <ele>300.3</ele>
        <time>2022-08-21T07:32:18.000Z</time>
      </trkpt>
      <trkpt lat="47.66786" lon="6.54195">
        <ele>300</ele>
        <time>2022-08-21T07:32:30.000Z</time>
      </trkpt>
      <trkpt lat="47.6676" lon="6.5418">
        <ele>300</ele>
        <time>2022-08-21T07:32:35.000Z</time>
      </trkpt>
      <trkpt lat="47.66651" lon="6.54046">
        <ele>299.3</ele>
        <time>2022-08-21T07:32:59.000Z</time>
      </trkpt>
      <trkpt lat="47.66627" lon="6.54007">
        <ele>299</ele>
        <time>2022-08-21T07:33:05.000Z</time>
      </trkpt>
      <trkpt lat="47.66561" lon="6.53847">
        <ele>299</ele>
        <time>2022-08-21T07:33:25.000Z</time>
      </trkpt>
      <trkpt lat="47.66553" lon="6.53822">
        <ele>299</ele>
        <time>2022-08-21T07:33:28.000Z</time>
      </trkpt>
      <trkpt lat="47.66551" lon="6.53801">
        <ele>299</ele>
        <time>2022-08-21T07:33:31.000Z</time>
      </trkpt>
      <trkpt lat="47.6656" lon="6.5378">
        <ele>299</ele>
        <time>2022-08-21T07:33:35.000Z</time>
      </trkpt>
      <trkpt lat="47.66597" lon="6.53755">
        <ele>299.4</ele>
        <time>2022-08-21T07:33:43.000Z</time>
      </trkpt>
      <trkpt lat="47.66623" lon="6.53727">
        <ele>299.5</ele>
        <time>2022-08-21T07:33:49.000Z</time>
      </trkpt>
      <trkpt lat="47.66646" lon="6.53687">
        <ele>300</ele>
        <time>2022-08-21T07:33:56.000Z</time>
      </trkpt>
      <trkpt lat="47.66649" lon="6.5367">
        <ele>300</ele>
        <time>2022-08-21T07:33:59.000Z</time>
      </trkpt>
      <trkpt lat="47.66648" lon="6.5366">
        <ele>299.8</ele>
        <time>2022-08-21T07:34:01.000Z</time>
      </trkpt>
      <trkpt lat="47.66611" lon="6.53599">
        <ele>299</ele>
        <time>2022-08-21T07:34:12.000Z</time>
      </trkpt>
      <trkpt lat="47.6656" lon="6.53501">
        <ele>299</ele>
        <time>2022-08-21T07:34:27.000Z</time>
      </trkpt>
      <trkpt lat="47.66471" lon="6.53364">
        <ele>298</ele>
        <time>2022-08-21T07:34:48.000Z</time>
      </trkpt>
      <trkpt lat="47.66438" lon="6.53292">
        <ele>298.7</ele>
        <time>2022-08-21T07:34:57.000Z</time>
      </trkpt>
      <trkpt lat="47.66406" lon="6.53275">
        <ele>299.3</ele>
        <time>2022-08-21T07:35:02.000Z</time>
      </trkpt>
      <trkpt lat="47.66401" lon="6.53269">
        <ele>299.1</ele>
        <time>2022-08-21T07:35:03.000Z</time>
      </trkpt>
      <trkpt lat="47.66401" lon="6.53245">
        <ele>299.7</ele>
        <time>2022-08-21T07:35:07.000Z</time>
      </trkpt>
      <trkpt lat="47.66438" lon="6.53097">
        <ele>299.7</ele>
        <time>2022-08-21T07:35:23.000Z</time>
      </trkpt>
      <trkpt lat="47.66458" lon="6.53029">
        <ele>299.4</ele>
        <time>2022-08-21T07:35:31.000Z</time>
      </trkpt>
      <trkpt lat="47.66511" lon="6.52885">
        <ele>299</ele>
        <time>2022-08-21T07:35:49.000Z</time>
      </trkpt>
      <trkpt lat="47.66564" lon="6.52774">
        <ele>298.1</ele>
        <time>2022-08-21T07:36:04.000Z</time>
      </trkpt>
      <trkpt lat="47.6657" lon="6.52743">
        <ele>298.2</ele>
        <time>2022-08-21T07:36:08.000Z</time>
      </trkpt>
      <trkpt lat="47.66567" lon="6.52702">
        <ele>297.1</ele>
        <time>2022-08-21T07:36:13.000Z</time>
      </trkpt>
      <trkpt lat="47.66551" lon="6.52652">
        <ele>296.5</ele>
        <time>2022-08-21T07:36:19.000Z</time>
      </trkpt>
      <trkpt lat="47.66536" lon="6.52622">
        <ele>296.4</ele>
        <time>2022-08-21T07:36:23.000Z</time>
      </trkpt>
      <trkpt lat="47.66495" lon="6.52553">
        <ele>296.9</ele>
        <time>2022-08-21T07:36:33.000Z</time>
      </trkpt>
      <trkpt lat="47.66479" lon="6.52517">
        <ele>296.6</ele>
        <time>2022-08-21T07:36:38.000Z</time>
      </trkpt>
      <trkpt lat="47.66474" lon="6.52489">
        <ele>296.6</ele>
        <time>2022-08-21T07:36:42.000Z</time>
      </trkpt>
      <trkpt lat="47.66476" lon="6.52471">
        <ele>296</ele>
        <time>2022-08-21T07:36:45.000Z</time>
      </trkpt>
      <trkpt lat="47.66485" lon="6.52456">
        <ele>295.7</ele>
        <time>2022-08-21T07:36:48.000Z</time>
      </trkpt>
      <trkpt lat="47.66524" lon="6.52421">
        <ele>295</ele>
        <time>2022-08-21T07:36:56.000Z</time>
      </trkpt>
      <trkpt lat="47.66561" lon="6.52371">
        <ele>295</ele>
        <time>2022-08-21T07:37:04.000Z</time>
      </trkpt>
      <trkpt lat="47.66585" lon="6.52346">
        <ele>295</ele>
        <time>2022-08-21T07:37:09.000Z</time>
      </trkpt>
      <trkpt lat="47.66612" lon="6.52328">
        <ele>295</ele>
        <time>2022-08-21T07:37:14.000Z</time>
      </trkpt>
      <trkpt lat="47.66664" lon="6.52305">
        <ele>295.9</ele>
        <time>2022-08-21T07:37:23.000Z</time>
      </trkpt>
      <trkpt lat="47.66697" lon="6.52276">
        <ele>295.9</ele>
        <time>2022-08-21T07:37:29.000Z</time>
      </trkpt>
      <trkpt lat="47.66733" lon="6.52227">
        <ele>295.1</ele>
        <time>2022-08-21T07:37:37.000Z</time>
      </trkpt>
      <trkpt lat="47.66771" lon="6.52139">
        <ele>295.5</ele>
        <time>2022-08-21T07:37:49.000Z</time>
      </trkpt>
      <trkpt lat="47.66791" lon="6.52112">
        <ele>296</ele>
        <time>2022-08-21T07:37:54.000Z</time>
      </trkpt>
      <trkpt lat="47.66814" lon="6.52102">
        <ele>295.6</ele>
        <time>2022-08-21T07:37:59.000Z</time>
      </trkpt>
      <trkpt lat="47.66851" lon="6.52107">
        <ele>295.1</ele>
        <time>2022-08-21T07:38:08.000Z</time>
      </trkpt>
      <trkpt lat="47.66862" lon="6.52097">
        <ele>295</ele>
        <time>2022-08-21T07:38:12.000Z</time>
      </trkpt>
      <trkpt lat="47.66873" lon="6.52065">
        <ele>294.6</ele>
        <time>2022-08-21T07:38:19.000Z</time>
      </trkpt>
      <trkpt lat="47.66873" lon="6.52034">
        <ele>294.6</ele>
        <time>2022-08-21T07:38:23.000Z</time>
      </trkpt>
      <trkpt lat="47.66864" lon="6.52012">
        <ele>294.4</ele>
        <time>2022-08-21T07:38:27.000Z</time>
      </trkpt>
      <trkpt lat="47.66841" lon="6.51986">
        <ele>294</ele>
        <time>2022-08-21T07:38:33.000Z</time>
      </trkpt>
      <trkpt lat="47.66831" lon="6.51969">
        <ele>294</ele>
        <time>2022-08-21T07:38:36.000Z</time>
      </trkpt>
      <trkpt lat="47.66825" lon="6.51949">
        <ele>294.2</ele>
        <time>2022-08-21T07:38:39.000Z</time>
      </trkpt>
      <trkpt lat="47.66826" lon="6.51928">
        <ele>294.3</ele>
        <time>2022-08-21T07:38:42.000Z</time>
      </trkpt>
      <trkpt lat="47.66833" lon="6.51909">
        <ele>294</ele>
        <time>2022-08-21T07:38:45.000Z</time>
      </trkpt>
      <trkpt lat="47.66844" lon="6.51893">
        <ele>294</ele>
        <time>2022-08-21T07:38:48.000Z</time>
      </trkpt>
      <trkpt lat="47.66892" lon="6.51855">
        <ele>294.2</ele>
        <time>2022-08-21T07:39:00.000Z</time>
      </trkpt>
      <trkpt lat="47.66904" lon="6.51832">
        <ele>294.5</ele>
        <time>2022-08-21T07:39:05.000Z</time>
      </trkpt>
      <trkpt lat="47.66904" lon="6.51822">
        <ele>294.5</ele>
        <time>2022-08-21T07:39:07.000Z</time>
      </trkpt>
      <trkpt lat="47.66899" lon="6.51808">
        <ele>294.6</ele>
        <time>2022-08-21T07:39:10.000Z</time>
      </trkpt>
      <trkpt lat="47.66818" lon="6.51675">
        <ele>294.6</ele>
        <time>2022-08-21T07:39:36.000Z</time>
      </trkpt>
      <trkpt lat="47.66776" lon="6.51622">
        <ele>294</ele>
        <time>2022-08-21T07:39:47.000Z</time>
      </trkpt>
      <trkpt lat="47.66737" lon="6.51549">
        <ele>293.8</ele>
        <time>2022-08-21T07:39:58.000Z</time>
      </trkpt>
      <trkpt lat="47.66696" lon="6.51513">
        <ele>293.4</ele>
        <time>2022-08-21T07:40:08.000Z</time>
      </trkpt>
      <trkpt lat="47.6667" lon="6.51467">
        <ele>293</ele>
        <time>2022-08-21T07:40:16.000Z</time>
      </trkpt>
      <trkpt lat="47.66655" lon="6.51449">
        <ele>293</ele>
        <time>2022-08-21T07:40:20.000Z</time>
      </trkpt>
      <trkpt lat="47.66605" lon="6.51429">
        <ele>293</ele>
        <time>2022-08-21T07:40:31.000Z</time>
      </trkpt>
      <trkpt lat="47.66583" lon="6.51408">
        <ele>293.3</ele>
        <time>2022-08-21T07:40:36.000Z</time>
      </trkpt>
      <trkpt lat="47.6657" lon="6.51377">
        <ele>293.5</ele>
        <time>2022-08-21T07:40:41.000Z</time>
      </trkpt>
      <trkpt lat="47.66568" lon="6.51358">
        <ele>293.6</ele>
        <time>2022-08-21T07:40:44.000Z</time>
      </trkpt>
      <trkpt lat="47.66571" lon="6.51338">
        <ele>294</ele>
        <time>2022-08-21T07:40:47.000Z</time>
      </trkpt>
      <trkpt lat="47.6658" lon="6.51314">
        <ele>294.1</ele>
        <time>2022-08-21T07:40:51.000Z</time>
      </trkpt>
      <trkpt lat="47.66609" lon="6.5126">
        <ele>293</ele>
        <time>2022-08-21T07:41:01.000Z</time>
      </trkpt>
      <trkpt lat="47.66627" lon="6.51178">
        <ele>292.6</ele>
        <time>2022-08-21T07:41:13.000Z</time>
      </trkpt>
      <trkpt lat="47.66631" lon="6.51168">
        <ele>292.7</ele>
        <time>2022-08-21T07:41:16.000Z</time>
      </trkpt>
      <trkpt lat="47.66644" lon="6.51171">
        <ele>293</ele>
        <time>2022-08-21T07:41:21.000Z</time>
      </trkpt>
      <trkpt lat="47.66676" lon="6.51209">
        <ele>293</ele>
        <time>2022-08-21T07:41:32.000Z</time>
      </trkpt>
      <trkpt lat="47.6669" lon="6.51217">
        <ele>293</ele>
        <time>2022-08-21T07:41:36.000Z</time>
      </trkpt>
      <trkpt lat="47.66706" lon="6.51212">
        <ele>293.3</ele>
        <time>2022-08-21T07:41:39.000Z</time>
      </trkpt>
      <trkpt lat="47.66738" lon="6.51181">
        <ele>293.6</ele>
        <time>2022-08-21T07:41:49.000Z</time>
      </trkpt>
      <trkpt lat="47.66764" lon="6.51178">
        <ele>294</ele>
        <time>2022-08-21T07:42:00.000Z</time>
      </trkpt>
      <trkpt lat="47.66773" lon="6.51168">
        <ele>294</ele>
        <time>2022-08-21T07:42:04.000Z</time>
      </trkpt>
      <trkpt lat="47.66809" lon="6.51101">
        <ele>294</ele>
        <time>2022-08-21T07:42:18.000Z</time>
      </trkpt>
      <trkpt lat="47.66824" lon="6.51087">
        <ele>294</ele>
        <time>2022-08-21T07:42:22.000Z</time>
      </trkpt>
      <trkpt lat="47.66861" lon="6.51071">
        <ele>294.5</ele>
        <time>2022-08-21T07:42:30.000Z</time>
      </trkpt>
      <trkpt lat="47.66877" lon="6.51057">
        <ele>294.6</ele>
        <time>2022-08-21T07:42:34.000Z</time>
      </trkpt>
      <trkpt lat="47.66955" lon="6.5095">
        <ele>294.5</ele>
        <time>2022-08-21T07:42:56.000Z</time>
      </trkpt>
      <trkpt lat="47.67024" lon="6.50846">
        <ele>295.3</ele>
        <time>2022-08-21T07:43:16.000Z</time>
      </trkpt>
      <trkpt lat="47.67093" lon="6.50731">
        <ele>294.4</ele>
        <time>2022-08-21T07:43:37.000Z</time>
      </trkpt>
      <trkpt lat="47.67094" lon="6.50715">
        <ele>294.4</ele>
        <time>2022-08-21T07:43:41.000Z</time>
      </trkpt>
      <trkpt lat="47.67084" lon="6.50689">
        <ele>294.8</ele>
        <time>2022-08-21T07:43:47.000Z</time>
      </trkpt>
      <trkpt lat="47.67082" lon="6.50665">
        <ele>294</ele>
        <time>2022-08-21T07:43:51.000Z</time>
      </trkpt>
      <trkpt lat="47.67103" lon="6.50588">
        <ele>294</ele>
        <time>2022-08-21T07:44:03.000Z</time>
      </trkpt>
      <trkpt lat="47.67103" lon="6.50569">
        <ele>293.3</ele>
        <time>2022-08-21T07:44:07.000Z</time>
      </trkpt>
      <trkpt lat="47.67095" lon="6.50554">
        <ele>293.1</ele>
        <time>2022-08-21T07:44:11.000Z</time>
      </trkpt>
      <trkpt lat="47.67024" lon="6.50468">
        <ele>293</ele>
        <time>2022-08-21T07:44:31.000Z</time>
      </trkpt>
      <trkpt lat="47.66937" lon="6.50394">
        <ele>293.1</ele>
        <time>2022-08-21T07:44:51.000Z</time>
      </trkpt>
      <trkpt lat="47.6677" lon="6.50217">
        <ele>292.8</ele>
        <time>2022-08-21T07:45:25.000Z</time>
      </trkpt>
      <trkpt lat="47.66688" lon="6.50153">
        <ele>292.6</ele>
        <time>2022-08-21T07:45:41.000Z</time>
      </trkpt>
      <trkpt lat="47.66661" lon="6.50144">
        <ele>293</ele>
        <time>2022-08-21T07:45:46.000Z</time>
      </trkpt>
      <trkpt lat="47.66618" lon="6.50141">
        <ele>293</ele>
        <time>2022-08-21T07:45:55.000Z</time>
      </trkpt>
      <trkpt lat="47.66603" lon="6.5013">
        <ele>292.5</ele>
        <time>2022-08-21T07:46:00.000Z</time>
      </trkpt>
      <trkpt lat="47.66588" lon="6.50072">
        <ele>292.1</ele>
        <time>2022-08-21T07:46:10.000Z</time>
      </trkpt>
      <trkpt lat="47.66568" lon="6.50013">
        <ele>292.1</ele>
        <time>2022-08-21T07:46:19.000Z</time>
      </trkpt>
      <trkpt lat="47.66563" lon="6.49984">
        <ele>291.3</ele>
        <time>2022-08-21T07:46:23.000Z</time>
      </trkpt>
      <trkpt lat="47.6656" lon="6.49936">
        <ele>291.4</ele>
        <time>2022-08-21T07:46:30.000Z</time>
      </trkpt>
      <trkpt lat="47.66555" lon="6.49918">
        <ele>291.9</ele>
        <time>2022-08-21T07:46:33.000Z</time>
      </trkpt>
      <trkpt lat="47.66502" lon="6.49832">
        <ele>291.9</ele>
        <time>2022-08-21T07:46:49.000Z</time>
      </trkpt>
      <trkpt lat="47.66488" lon="6.49798">
        <ele>291</ele>
        <time>2022-08-21T07:46:55.000Z</time>
      </trkpt>
      <trkpt lat="47.66489" lon="6.49783">
        <ele>291</ele>
        <time>2022-08-21T07:46:58.000Z</time>
      </trkpt>
      <trkpt lat="47.66496" lon="6.49769">
        <ele>291</ele>
        <time>2022-08-21T07:47:01.000Z</time>
      </trkpt>
      <trkpt lat="47.66547" lon="6.49716">
        <ele>291.2</ele>
        <time>2022-08-21T07:47:13.000Z</time>
      </trkpt>
      <trkpt lat="47.66572" lon="6.49679">
        <ele>291.5</ele>
        <time>2022-08-21T07:47:20.000Z</time>
      </trkpt>
      <trkpt lat="47.66576" lon="6.49662">
        <ele>291.6</ele>
        <time>2022-08-21T07:47:23.000Z</time>
      </trkpt>
      <trkpt lat="47.66573" lon="6.49645">
        <ele>291.1</ele>
        <time>2022-08-21T07:47:26.000Z</time>
      </trkpt>
      <trkpt lat="47.66563" lon="6.4963">
        <ele>290.8</ele>
        <time>2022-08-21T07:47:29.000Z</time>
      </trkpt>
      <trkpt lat="47.6655" lon="6.49618">
        <ele>290.5</ele>
        <time>2022-08-21T07:47:32.000Z</time>
      </trkpt>
      <trkpt lat="47.6653" lon="6.49603">
        <ele>291.6</ele>
        <time>2022-08-21T07:47:37.000Z</time>
      </trkpt>
      <trkpt lat="47.6652" lon="6.49604">
        <ele>291.5</ele>
        <time>2022-08-21T07:47:40.000Z</time>
      </trkpt>
      <trkpt lat="47.6648" lon="6.49666">
        <ele>291</ele>
        <time>2022-08-21T07:47:52.000Z</time>
      </trkpt>
      <trkpt lat="47.66457" lon="6.49679">
        <ele>291.2</ele>
        <time>2022-08-21T07:47:58.000Z</time>
      </trkpt>
      <trkpt lat="47.66437" lon="6.49679">
        <ele>290.9</ele>
        <time>2022-08-21T07:48:02.000Z</time>
      </trkpt>
      <trkpt lat="47.66418" lon="6.49669">
        <ele>290.1</ele>
        <time>2022-08-21T07:48:06.000Z</time>
      </trkpt>
      <trkpt lat="47.66403" lon="6.49646">
        <ele>290.5</ele>
        <time>2022-08-21T07:48:10.000Z</time>
      </trkpt>
      <trkpt lat="47.664" lon="6.49628">
        <ele>290.4</ele>
        <time>2022-08-21T07:48:13.000Z</time>
      </trkpt>
      <trkpt lat="47.66401" lon="6.49576">
        <ele>290.2</ele>
        <time>2022-08-21T07:48:21.000Z</time>
      </trkpt>
      <trkpt lat="47.66393" lon="6.49553">
        <ele>290.8</ele>
        <time>2022-08-21T07:48:25.000Z</time>
      </trkpt>
      <trkpt lat="47.66372" lon="6.4953">
        <ele>290.6</ele>
        <time>2022-08-21T07:48:30.000Z</time>
      </trkpt>
      <trkpt lat="47.66332" lon="6.49508">
        <ele>290.3</ele>
        <time>2022-08-21T07:48:38.000Z</time>
      </trkpt>
      <trkpt lat="47.66295" lon="6.495">
        <ele>290.6</ele>
        <time>2022-08-21T07:48:45.000Z</time>
      </trkpt>
      <trkpt lat="47.66188" lon="6.49519">
        <ele>289.7</ele>
        <time>2022-08-21T07:49:09.000Z</time>
      </trkpt>
      <trkpt lat="47.66099" lon="6.49515">
        <ele>289.6</ele>
        <time>2022-08-21T07:49:28.000Z</time>
      </trkpt>
      <trkpt lat="47.66082" lon="6.49509">
        <ele>289.4</ele>
        <time>2022-08-21T07:49:32.000Z</time>
      </trkpt>
      <trkpt lat="47.66051" lon="6.49479">
        <ele>289.2</ele>
        <time>2022-08-21T07:49:40.000Z</time>
      </trkpt>
      <trkpt lat="47.66032" lon="6.4947">
        <ele>289</ele>
        <time>2022-08-21T07:49:44.000Z</time>
      </trkpt>
      <trkpt lat="47.66003" lon="6.49468">
        <ele>289.9</ele>
        <time>2022-08-21T07:49:51.000Z</time>
      </trkpt>
      <trkpt lat="47.65962" lon="6.49486">
        <ele>289.6</ele>
        <time>2022-08-21T07:50:03.000Z</time>
      </trkpt>
      <trkpt lat="47.65918" lon="6.49481">
        <ele>289.3</ele>
        <time>2022-08-21T07:50:12.000Z</time>
      </trkpt>
      <trkpt lat="47.65854" lon="6.49458">
        <ele>289</ele>
        <time>2022-08-21T07:50:24.000Z</time>
      </trkpt>
      <trkpt lat="47.65757" lon="6.49411">
        <ele>289</ele>
        <time>2022-08-21T07:50:45.000Z</time>
      </trkpt>
      <trkpt lat="47.65736" lon="6.49407">
        <ele>288.7</ele>
        <time>2022-08-21T07:50:51.000Z</time>
      </trkpt>
      <trkpt lat="47.65718" lon="6.49427">
        <ele>288.5</ele>
        <time>2022-08-21T07:50:57.000Z</time>
      </trkpt>
      <trkpt lat="47.65667" lon="6.49512">
        <ele>289</ele>
        <time>2022-08-21T07:51:10.000Z</time>
      </trkpt>
      <trkpt lat="47.65641" lon="6.49583">
        <ele>289</ele>
        <time>2022-08-21T07:51:23.000Z</time>
      </trkpt>
      <trkpt lat="47.65642" lon="6.49595">
        <ele>289</ele>
        <time>2022-08-21T07:51:27.000Z</time>
      </trkpt>
      <trkpt lat="47.65704" lon="6.49648">
        <ele>289</ele>
        <time>2022-08-21T07:51:46.000Z</time>
      </trkpt>
      <trkpt lat="47.65723" lon="6.49659">
        <ele>289</ele>
        <time>2022-08-21T07:51:51.000Z</time>
      </trkpt>
      <trkpt lat="47.6575" lon="6.4966">
        <ele>289</ele>
        <time>2022-08-21T07:51:57.000Z</time>
      </trkpt>
      <trkpt lat="47.65799" lon="6.49643">
        <ele>289</ele>
        <time>2022-08-21T07:52:11.000Z</time>
      </trkpt>
      <trkpt lat="47.65811" lon="6.49646">
        <ele>289.1</ele>
        <time>2022-08-21T07:52:15.000Z</time>
      </trkpt>
      <trkpt lat="47.6589" lon="6.49752">
        <ele>290</ele>
        <time>2022-08-21T07:52:40.000Z</time>
      </trkpt>
      <trkpt lat="47.65942" lon="6.49815">
        <ele>290</ele>
        <time>2022-08-21T07:52:59.000Z</time>
      </trkpt>
      <trkpt lat="47.65953" lon="6.49811">
        <ele>290</ele>
        <time>2022-08-21T07:53:05.000Z</time>
      </trkpt>
      <trkpt lat="47.6597" lon="6.49783">
        <ele>290</ele>
        <time>2022-08-21T07:53:12.000Z</time>
      </trkpt>
      <trkpt lat="47.65981" lon="6.49759">
        <ele>290</ele>
        <time>2022-08-21T07:53:17.000Z</time>
      </trkpt>
      <trkpt lat="47.65992" lon="6.4972">
        <ele>290</ele>
        <time>2022-08-21T07:53:28.000Z</time>
      </trkpt>
      <trkpt lat="47.66006" lon="6.49727">
        <ele>290</ele>
        <time>2022-08-21T07:53:41.000Z</time>
      </trkpt>
      <trkpt lat="47.66025" lon="6.49728">
        <ele>290</ele>
        <time>2022-08-21T07:54:02.000Z</time>
      </trkpt>
      <trkpt lat="47.66068" lon="6.49719">
        <ele>290</ele>
        <time>2022-08-21T07:54:18.000Z</time>
      </trkpt>
      <trkpt lat="47.66077" lon="6.4971">
        <ele>290</ele>
        <time>2022-08-21T07:54:26.000Z</time>
      </trkpt>
      <trkpt lat="47.66075" lon="6.49695">
        <ele>290</ele>
        <time>2022-08-21T07:54:32.000Z</time>
      </trkpt>
      <trkpt lat="47.66063" lon="6.49667">
        <ele>290.7</ele>
        <time>2022-08-21T07:54:40.000Z</time>
      </trkpt>
      <trkpt lat="47.66038" lon="6.49633">
        <ele>290</ele>
        <time>2022-08-21T07:54:51.000Z</time>
      </trkpt>
      <trkpt lat="47.6602" lon="6.49602">
        <ele>290</ele>
        <time>2022-08-21T07:55:03.000Z</time>
      </trkpt>
      <trkpt lat="47.6599" lon="6.49571">
        <ele>290</ele>
        <time>2022-08-21T07:55:13.000Z</time>
      </trkpt>
      <trkpt lat="47.65975" lon="6.49548">
        <ele>290</ele>
        <time>2022-08-21T07:55:19.000Z</time>
      </trkpt>
      <trkpt lat="47.6597" lon="6.49532">
        <ele>290</ele>
        <time>2022-08-21T07:55:23.000Z</time>
      </trkpt>
      <trkpt lat="47.6597" lon="6.49516">
        <ele>290</ele>
        <time>2022-08-21T07:55:27.000Z</time>
      </trkpt>
      <trkpt lat="47.6598" lon="6.49489">
        <ele>290</ele>
        <time>2022-08-21T07:55:34.000Z</time>
      </trkpt>
      <trkpt lat="47.65994" lon="6.4948">
        <ele>290</ele>
        <time>2022-08-21T07:55:39.000Z</time>
      </trkpt>
      <trkpt lat="47.66011" lon="6.49482">
        <ele>289.7</ele>
        <time>2022-08-21T07:55:44.000Z</time>
      </trkpt>
      <trkpt lat="47.66061" lon="6.49513">
        <ele>289.9</ele>
        <time>2022-08-21T07:55:57.000Z</time>
      </trkpt>
      <trkpt lat="47.66121" lon="6.49524">
        <ele>289.9</ele>
        <time>2022-08-21T07:56:10.000Z</time>
      </trkpt>
      <trkpt lat="47.66142" lon="6.49533">
        <ele>290</ele>
        <time>2022-08-21T07:56:14.000Z</time>
      </trkpt>
      <trkpt lat="47.66161" lon="6.49549">
        <ele>290</ele>
        <time>2022-08-21T07:56:18.000Z</time>
      </trkpt>
      <trkpt lat="47.66176" lon="6.49572">
        <ele>290</ele>
        <time>2022-08-21T07:56:22.000Z</time>
      </trkpt>
      <trkpt lat="47.66187" lon="6.49598">
        <ele>290</ele>
        <time>2022-08-21T07:56:26.000Z</time>
      </trkpt>
      <trkpt lat="47.66199" lon="6.49638">
        <ele>290</ele>
        <time>2022-08-21T07:56:32.000Z</time>
      </trkpt>
      <trkpt lat="47.66204" lon="6.49666">
        <ele>290.3</ele>
        <time>2022-08-21T07:56:36.000Z</time>
      </trkpt>
      <trkpt lat="47.66202" lon="6.49698">
        <ele>290.3</ele>
        <time>2022-08-21T07:56:41.000Z</time>
      </trkpt>
      <trkpt lat="47.66178" lon="6.49802">
        <ele>290</ele>
        <time>2022-08-21T07:56:57.000Z</time>
      </trkpt>
      <trkpt lat="47.66177" lon="6.49822">
        <ele>290.4</ele>
        <time>2022-08-21T07:57:00.000Z</time>
      </trkpt>
      <trkpt lat="47.6618" lon="6.49838">
        <ele>290.6</ele>
        <time>2022-08-21T07:57:03.000Z</time>
      </trkpt>
      <trkpt lat="47.66197" lon="6.49856">
        <ele>290.8</ele>
        <time>2022-08-21T07:57:08.000Z</time>
      </trkpt>
      <trkpt lat="47.66239" lon="6.49867">
        <ele>290.8</ele>
        <time>2022-08-21T07:57:17.000Z</time>
      </trkpt>
      <trkpt lat="47.66258" lon="6.49859">
        <ele>291</ele>
        <time>2022-08-21T07:57:22.000Z</time>
      </trkpt>
      <trkpt lat="47.66276" lon="6.49822">
        <ele>291</ele>
        <time>2022-08-21T07:57:31.000Z</time>
      </trkpt>
      <trkpt lat="47.66283" lon="6.49816">
        <ele>291</ele>
        <time>2022-08-21T07:57:34.000Z</time>
      </trkpt>
      <trkpt lat="47.66297" lon="6.4982">
        <ele>291</ele>
        <time>2022-08-21T07:57:39.000Z</time>
      </trkpt>
      <trkpt lat="47.66315" lon="6.49838">
        <ele>291</ele>
        <time>2022-08-21T07:57:44.000Z</time>
      </trkpt>
      <trkpt lat="47.66393" lon="6.49987">
        <ele>291</ele>
        <time>2022-08-21T07:58:12.000Z</time>
      </trkpt>
      <trkpt lat="47.66407" lon="6.50022">
        <ele>291.7</ele>
        <time>2022-08-21T07:58:19.000Z</time>
      </trkpt>
      <trkpt lat="47.66421" lon="6.50092">
        <ele>292.9</ele>
        <time>2022-08-21T07:58:32.000Z</time>
      </trkpt>
      <trkpt lat="47.66435" lon="6.50132">
        <ele>293</ele>
        <time>2022-08-21T07:58:40.000Z</time>
      </trkpt>
      <trkpt lat="47.6644" lon="6.50157">
        <ele>293</ele>
        <time>2022-08-21T07:58:44.000Z</time>
      </trkpt>
      <trkpt lat="47.66439" lon="6.50187">
        <ele>293</ele>
        <time>2022-08-21T07:58:49.000Z</time>
      </trkpt>
      <trkpt lat="47.6643" lon="6.5022">
        <ele>293</ele>
        <time>2022-08-21T07:58:55.000Z</time>
      </trkpt>
      <trkpt lat="47.66388" lon="6.50293">
        <ele>293</ele>
        <time>2022-08-21T07:59:13.000Z</time>
      </trkpt>
      <trkpt lat="47.6635" lon="6.50369">
        <ele>292.2</ele>
        <time>2022-08-21T07:59:29.000Z</time>
      </trkpt>
      <trkpt lat="47.663" lon="6.50485">
        <ele>292</ele>
        <time>2022-08-21T07:59:50.000Z</time>
      </trkpt>
      <trkpt lat="47.6627" lon="6.50544">
        <ele>292.6</ele>
        <time>2022-08-21T08:00:02.000Z</time>
      </trkpt>
      <trkpt lat="47.66254" lon="6.50566">
        <ele>292.8</ele>
        <time>2022-08-21T08:00:07.000Z</time>
      </trkpt>
      <trkpt lat="47.66235" lon="6.50583">
        <ele>293.4</ele>
        <time>2022-08-21T08:00:11.000Z</time>
      </trkpt>
      <trkpt lat="47.66192" lon="6.50607">
        <ele>292</ele>
        <time>2022-08-21T08:00:19.000Z</time>
      </trkpt>
      <trkpt lat="47.66122" lon="6.5063">
        <ele>291.6</ele>
        <time>2022-08-21T08:00:35.000Z</time>
      </trkpt>
      <trkpt lat="47.66103" lon="6.50627">
        <ele>291.3</ele>
        <time>2022-08-21T08:00:40.000Z</time>
      </trkpt>
      <trkpt lat="47.66072" lon="6.50574">
        <ele>291.4</ele>
        <time>2022-08-21T08:00:51.000Z</time>
      </trkpt>
      <trkpt lat="47.66017" lon="6.50507">
        <ele>291.2</ele>
        <time>2022-08-21T08:01:09.000Z</time>
      </trkpt>
      <trkpt lat="47.65951" lon="6.50463">
        <ele>290.7</ele>
        <time>2022-08-21T08:01:26.000Z</time>
      </trkpt>
      <trkpt lat="47.659" lon="6.50442">
        <ele>291</ele>
        <time>2022-08-21T08:01:39.000Z</time>
      </trkpt>
      <trkpt lat="47.65861" lon="6.50435">
        <ele>291</ele>
        <time>2022-08-21T08:01:47.000Z</time>
      </trkpt>
      <trkpt lat="47.6578" lon="6.50434">
        <ele>290</ele>
        <time>2022-08-21T08:02:01.000Z</time>
      </trkpt>
      <trkpt lat="47.65749" lon="6.50447">
        <ele>290</ele>
        <time>2022-08-21T08:02:07.000Z</time>
      </trkpt>
      <trkpt lat="47.65685" lon="6.50486">
        <ele>290</ele>
        <time>2022-08-21T08:02:20.000Z</time>
      </trkpt>
      <trkpt lat="47.65602" lon="6.50574">
        <ele>290</ele>
        <time>2022-08-21T08:02:41.000Z</time>
      </trkpt>
      <trkpt lat="47.65531" lon="6.50628">
        <ele>290</ele>
        <time>2022-08-21T08:02:57.000Z</time>
      </trkpt>
      <trkpt lat="47.65481" lon="6.50677">
        <ele>290</ele>
        <time>2022-08-21T08:03:10.000Z</time>
      </trkpt>
      <trkpt lat="47.65355" lon="6.50838">
        <ele>290.6</ele>
        <time>2022-08-21T08:03:44.000Z</time>
      </trkpt>
      <trkpt lat="47.65246" lon="6.51008">
        <ele>290.9</ele>
        <time>2022-08-21T08:04:16.000Z</time>
      </trkpt>
      <trkpt lat="47.65196" lon="6.51059">
        <ele>290.8</ele>
        <time>2022-08-21T08:04:28.000Z</time>
      </trkpt>
      <trkpt lat="47.65141" lon="6.51107">
        <ele>290.1</ele>
        <time>2022-08-21T08:04:40.000Z</time>
      </trkpt>
      <trkpt lat="47.65083" lon="6.5117">
        <ele>290</ele>
        <time>2022-08-21T08:04:54.000Z</time>
      </trkpt>
      <trkpt lat="47.65063" lon="6.51204">
        <ele>290.2</ele>
        <time>2022-08-21T08:05:00.000Z</time>
      </trkpt>
      <trkpt lat="47.65038" lon="6.51256">
        <ele>291</ele>
        <time>2022-08-21T08:05:09.000Z</time>
      </trkpt>
      <trkpt lat="47.65009" lon="6.51331">
        <ele>291</ele>
        <time>2022-08-21T08:05:23.000Z</time>
      </trkpt>
      <trkpt lat="47.64952" lon="6.51462">
        <ele>291</ele>
        <time>2022-08-21T08:05:44.000Z</time>
      </trkpt>
      <trkpt lat="47.6493" lon="6.51497">
        <ele>291.5</ele>
        <time>2022-08-21T08:05:51.000Z</time>
      </trkpt>
      <trkpt lat="47.64917" lon="6.51507">
        <ele>292.2</ele>
        <time>2022-08-21T08:05:55.000Z</time>
      </trkpt>
      <trkpt lat="47.64895" lon="6.51517">
        <ele>294.1</ele>
        <time>2022-08-21T08:05:59.000Z</time>
      </trkpt>
      <trkpt lat="47.64794" lon="6.5155">
        <ele>300.3</ele>
        <time>2022-08-21T08:06:27.000Z</time>
      </trkpt>
      <trkpt lat="47.64706" lon="6.51573">
        <ele>304.9</ele>
        <time>2022-08-21T08:06:53.000Z</time>
      </trkpt>
      <trkpt lat="47.64677" lon="6.51578">
        <ele>305.8</ele>
        <time>2022-08-21T08:07:02.000Z</time>
      </trkpt>
      <trkpt lat="47.64669" lon="6.51576">
        <ele>305.7</ele>
        <time>2022-08-21T08:07:05.000Z</time>
      </trkpt>
      <trkpt lat="47.64665" lon="6.51569">
        <ele>305.5</ele>
        <time>2022-08-21T08:07:08.000Z</time>
      </trkpt>
      <trkpt lat="47.64658" lon="6.51488">
        <ele>303.6</ele>
        <time>2022-08-21T08:07:25.000Z</time>
      </trkpt>
      <trkpt lat="47.64665" lon="6.5137">
        <ele>303.1</ele>
        <time>2022-08-21T08:07:44.000Z</time>
      </trkpt>
      <trkpt lat="47.64657" lon="6.51335">
        <ele>303.4</ele>
        <time>2022-08-21T08:07:50.000Z</time>
      </trkpt>
      <trkpt lat="47.64633" lon="6.51256">
        <ele>303.6</ele>
        <time>2022-08-21T08:08:04.000Z</time>
      </trkpt>
      <trkpt lat="47.64624" lon="6.51238">
        <ele>303.8</ele>
        <time>2022-08-21T08:08:08.000Z</time>
      </trkpt>
      <trkpt lat="47.64612" lon="6.51228">
        <ele>304.2</ele>
        <time>2022-08-21T08:08:12.000Z</time>
      </trkpt>
      <trkpt lat="47.646" lon="6.51227">
        <ele>304.5</ele>
        <time>2022-08-21T08:08:15.000Z</time>
      </trkpt>
      <trkpt lat="47.64502" lon="6.51249">
        <ele>308</ele>
        <time>2022-08-21T08:08:39.000Z</time>
      </trkpt>
      <trkpt lat="47.64493" lon="6.51245">
        <ele>308.3</ele>
        <time>2022-08-21T08:08:44.000Z</time>
      </trkpt>
      <trkpt lat="47.64494" lon="6.51231">
        <ele>308.2</ele>
        <time>2022-08-21T08:08:48.000Z</time>
      </trkpt>
      <trkpt lat="47.64501" lon="6.51213">
        <ele>308</ele>
        <time>2022-08-21T08:08:52.000Z</time>
      </trkpt>
      <trkpt lat="47.64531" lon="6.51149">
        <ele>306.2</ele>
        <time>2022-08-21T08:09:04.000Z</time>
      </trkpt>
      <trkpt lat="47.64535" lon="6.51126">
        <ele>305.7</ele>
        <time>2022-08-21T08:09:08.000Z</time>
      </trkpt>
      <trkpt lat="47.64535" lon="6.51107">
        <ele>305.7</ele>
        <time>2022-08-21T08:09:11.000Z</time>
      </trkpt>
      <trkpt lat="47.64507" lon="6.5099">
        <ele>305.8</ele>
        <time>2022-08-21T08:09:31.000Z</time>
      </trkpt>
      <trkpt lat="47.64507" lon="6.50902">
        <ele>304.6</ele>
        <time>2022-08-21T08:09:45.000Z</time>
      </trkpt>
      <trkpt lat="47.64501" lon="6.50887">
        <ele>304.9</ele>
        <time>2022-08-21T08:09:52.000Z</time>
      </trkpt>
      <trkpt lat="47.6449" lon="6.50886">
        <ele>305.2</ele>
        <time>2022-08-21T08:10:01.000Z</time>
      </trkpt>
      <trkpt lat="47.64485" lon="6.50878">
        <ele>305.1</ele>
        <time>2022-08-21T08:10:05.000Z</time>
      </trkpt>
      <trkpt lat="47.64424" lon="6.50701">
        <ele>301</ele>
        <time>2022-08-21T08:10:37.000Z</time>
      </trkpt>
      <trkpt lat="47.64412" lon="6.50681">
        <ele>300</ele>
        <time>2022-08-21T08:10:40.000Z</time>
      </trkpt>
      <trkpt lat="47.64402" lon="6.50671">
        <ele>299.3</ele>
        <time>2022-08-21T08:10:42.000Z</time>
      </trkpt>
      <trkpt lat="47.64386" lon="6.50663">
        <ele>298.9</ele>
        <time>2022-08-21T08:10:44.000Z</time>
      </trkpt>
      <trkpt lat="47.64376" lon="6.50662">
        <ele>298.8</ele>
        <time>2022-08-21T08:10:46.000Z</time>
      </trkpt>
      <trkpt lat="47.64363" lon="6.50668">
        <ele>299.1</ele>
        <time>2022-08-21T08:10:49.000Z</time>
      </trkpt>
      <trkpt lat="47.64356" lon="6.5068">
        <ele>299.3</ele>
        <time>2022-08-21T08:10:52.000Z</time>
      </trkpt>
      <trkpt lat="47.64355" lon="6.50693">
        <ele>299.7</ele>
        <time>2022-08-21T08:10:55.000Z</time>
      </trkpt>
      <trkpt lat="47.64359" lon="6.50718">
        <ele>300.8</ele>
        <time>2022-08-21T08:11:05.000Z</time>
      </trkpt>
      <trkpt lat="47.64355" lon="6.50702">
        <ele>300.1</ele>
        <time>2022-08-21T08:11:13.000Z</time>
      </trkpt>
      <trkpt lat="47.64353" lon="6.50663">
        <ele>298.6</ele>
        <time>2022-08-21T08:11:23.000Z</time>
      </trkpt>
      <trkpt lat="47.64346" lon="6.50654">
        <ele>298</ele>
        <time>2022-08-21T08:11:27.000Z</time>
      </trkpt>
      <trkpt lat="47.64335" lon="6.50661">
        <ele>297.9</ele>
        <time>2022-08-21T08:11:32.000Z</time>
      </trkpt>
      <trkpt lat="47.64302" lon="6.50709">
        <ele>296.6</ele>
        <time>2022-08-21T08:11:45.000Z</time>
      </trkpt>
      <trkpt lat="47.6429" lon="6.50743">
        <ele>296.6</ele>
        <time>2022-08-21T08:11:51.000Z</time>
      </trkpt>
      <trkpt lat="47.64279" lon="6.508">
        <ele>296.9</ele>
        <time>2022-08-21T08:12:01.000Z</time>
      </trkpt>
      <trkpt lat="47.64261" lon="6.5098">
        <ele>298.4</ele>
        <time>2022-08-21T08:12:33.000Z</time>
      </trkpt>
      <trkpt lat="47.64255" lon="6.51015">
        <ele>298.4</ele>
        <time>2022-08-21T08:12:40.000Z</time>
      </trkpt>
      <trkpt lat="47.64234" lon="6.51086">
        <ele>297.9</ele>
        <time>2022-08-21T08:12:53.000Z</time>
      </trkpt>
      <trkpt lat="47.64226" lon="6.51184">
        <ele>298.9</ele>
        <time>2022-08-21T08:13:07.000Z</time>
      </trkpt>
      <trkpt lat="47.64207" lon="6.51276">
        <ele>298.9</ele>
        <time>2022-08-21T08:13:21.000Z</time>
      </trkpt>
      <trkpt lat="47.64203" lon="6.51479">
        <ele>298.9</ele>
        <time>2022-08-21T08:13:55.000Z</time>
      </trkpt>
      <trkpt lat="47.64209" lon="6.51526">
        <ele>299.1</ele>
        <time>2022-08-21T08:14:02.000Z</time>
      </trkpt>
      <trkpt lat="47.64233" lon="6.51604">
        <ele>300.3</ele>
        <time>2022-08-21T08:14:14.000Z</time>
      </trkpt>
      <trkpt lat="47.64249" lon="6.5167">
        <ele>300.9</ele>
        <time>2022-08-21T08:14:26.000Z</time>
      </trkpt>
      <trkpt lat="47.64284" lon="6.51852">
        <ele>301</ele>
        <time>2022-08-21T08:14:54.000Z</time>
      </trkpt>
      <trkpt lat="47.6429" lon="6.51898">
        <ele>301.3</ele>
        <time>2022-08-21T08:15:00.000Z</time>
      </trkpt>
      <trkpt lat="47.64292" lon="6.52009">
        <ele>301.5</ele>
        <time>2022-08-21T08:15:14.000Z</time>
      </trkpt>
      <trkpt lat="47.64295" lon="6.52048">
        <ele>301.9</ele>
        <time>2022-08-21T08:15:19.000Z</time>
      </trkpt>
      <trkpt lat="47.64309" lon="6.52126">
        <ele>303.3</ele>
        <time>2022-08-21T08:15:32.000Z</time>
      </trkpt>
      <trkpt lat="47.64329" lon="6.52195">
        <ele>304.7</ele>
        <time>2022-08-21T08:15:45.000Z</time>
      </trkpt>
      <trkpt lat="47.64341" lon="6.52268">
        <ele>305.6</ele>
        <time>2022-08-21T08:15:57.000Z</time>
      </trkpt>
      <trkpt lat="47.64343" lon="6.52323">
        <ele>305.9</ele>
        <time>2022-08-21T08:16:06.000Z</time>
      </trkpt>
      <trkpt lat="47.6434" lon="6.52395">
        <ele>305.5</ele>
        <time>2022-08-21T08:16:20.000Z</time>
      </trkpt>
      <trkpt lat="47.6435" lon="6.52405">
        <ele>306.2</ele>
        <time>2022-08-21T08:16:25.000Z</time>
      </trkpt>
      <trkpt lat="47.64394" lon="6.52406">
        <ele>308.5</ele>
        <time>2022-08-21T08:16:39.000Z</time>
      </trkpt>
      <trkpt lat="47.64401" lon="6.52419">
        <ele>308.4</ele>
        <time>2022-08-21T08:16:45.000Z</time>
      </trkpt>
      <trkpt lat="47.64399" lon="6.52492">
        <ele>306.7</ele>
        <time>2022-08-21T08:16:59.000Z</time>
      </trkpt>
      <trkpt lat="47.64383" lon="6.52644">
        <ele>307.2</ele>
        <time>2022-08-21T08:17:24.000Z</time>
      </trkpt>
      <trkpt lat="47.6437" lon="6.52726">
        <ele>306.7</ele>
        <time>2022-08-21T08:17:37.000Z</time>
      </trkpt>
      <trkpt lat="47.64371" lon="6.52765">
        <ele>306.5</ele>
        <time>2022-08-21T08:17:44.000Z</time>
      </trkpt>
      <trkpt lat="47.64382" lon="6.52805">
        <ele>305.5</ele>
        <time>2022-08-21T08:17:50.000Z</time>
      </trkpt>
      <trkpt lat="47.64401" lon="6.52844">
        <ele>305.4</ele>
        <time>2022-08-21T08:17:56.000Z</time>
      </trkpt>
      <trkpt lat="47.64473" lon="6.52929">
        <ele>308</ele>
        <time>2022-08-21T08:18:16.000Z</time>
      </trkpt>
      <trkpt lat="47.64569" lon="6.53059">
        <ele>306.9</ele>
        <time>2022-08-21T08:18:42.000Z</time>
      </trkpt>
      <trkpt lat="47.64603" lon="6.53113">
        <ele>305.3</ele>
        <time>2022-08-21T08:18:51.000Z</time>
      </trkpt>
      <trkpt lat="47.64654" lon="6.53208">
        <ele>303.5</ele>
        <time>2022-08-21T08:19:08.000Z</time>
      </trkpt>
      <trkpt lat="47.64646" lon="6.53192">
        <ele>303.7</ele>
        <time>2022-08-21T08:19:18.000Z</time>
      </trkpt>
      <trkpt lat="47.6464" lon="6.53198">
        <ele>304</ele>
        <time>2022-08-21T08:19:24.000Z</time>
      </trkpt>
      <trkpt lat="47.64615" lon="6.53295">
        <ele>302.9</ele>
        <time>2022-08-21T08:19:44.000Z</time>
      </trkpt>
      <trkpt lat="47.64584" lon="6.53455">
        <ele>300</ele>
        <time>2022-08-21T08:20:06.000Z</time>
      </trkpt>
      <trkpt lat="47.64579" lon="6.53462">
        <ele>300.2</ele>
        <time>2022-08-21T08:20:10.000Z</time>
      </trkpt>
      <trkpt lat="47.6453" lon="6.53453">
        <ele>302.6</ele>
        <time>2022-08-21T08:20:28.000Z</time>
      </trkpt>
      <trkpt lat="47.64404" lon="6.53415">
        <ele>305.5</ele>
        <time>2022-08-21T08:21:08.000Z</time>
      </trkpt>
      <trkpt lat="47.64352" lon="6.53406">
        <ele>305.3</ele>
        <time>2022-08-21T08:21:21.000Z</time>
      </trkpt>
      <trkpt lat="47.64275" lon="6.5338">
        <ele>307.5</ele>
        <time>2022-08-21T08:21:38.000Z</time>
      </trkpt>
      <trkpt lat="47.64228" lon="6.53378">
        <ele>308.9</ele>
        <time>2022-08-21T08:21:50.000Z</time>
      </trkpt>
      <trkpt lat="47.64217" lon="6.53382">
        <ele>309</ele>
        <time>2022-08-21T08:21:54.000Z</time>
      </trkpt>
      <trkpt lat="47.64211" lon="6.5339">
        <ele>309</ele>
        <time>2022-08-21T08:21:57.000Z</time>
      </trkpt>
      <trkpt lat="47.64202" lon="6.53412">
        <ele>308.8</ele>
        <time>2022-08-21T08:22:02.000Z</time>
      </trkpt>
      <trkpt lat="47.64195" lon="6.53444">
        <ele>308</ele>
        <time>2022-08-21T08:22:08.000Z</time>
      </trkpt>
      <trkpt lat="47.64171" lon="6.53659">
        <ele>308</ele>
        <time>2022-08-21T08:22:42.000Z</time>
      </trkpt>
      <trkpt lat="47.64164" lon="6.53753">
        <ele>309</ele>
        <time>2022-08-21T08:22:58.000Z</time>
      </trkpt>
      <trkpt lat="47.64128" lon="6.5397">
        <ele>310</ele>
        <time>2022-08-21T08:23:37.000Z</time>
      </trkpt>
      <trkpt lat="47.64122" lon="6.54027">
        <ele>310</ele>
        <time>2022-08-21T08:23:49.000Z</time>
      </trkpt>
      <trkpt lat="47.6411" lon="6.54072">
        <ele>311</ele>
        <time>2022-08-21T08:24:00.000Z</time>
      </trkpt>
      <trkpt lat="47.64059" lon="6.54168">
        <ele>313</ele>
        <time>2022-08-21T08:24:25.000Z</time>
      </trkpt>
      <trkpt lat="47.64015" lon="6.54238">
        <ele>314.6</ele>
        <time>2022-08-21T08:24:44.000Z</time>
      </trkpt>
      <trkpt lat="47.63847" lon="6.54464">
        <ele>311.2</ele>
        <time>2022-08-21T08:25:34.000Z</time>
      </trkpt>
      <trkpt lat="47.63767" lon="6.54557">
        <ele>311.7</ele>
        <time>2022-08-21T08:25:56.000Z</time>
      </trkpt>
      <trkpt lat="47.63725" lon="6.5459">
        <ele>311.1</ele>
        <time>2022-08-21T08:26:08.000Z</time>
      </trkpt>
      <trkpt lat="47.63673" lon="6.54638">
        <ele>309.2</ele>
        <time>2022-08-21T08:26:20.000Z</time>
      </trkpt>
      <trkpt lat="47.63618" lon="6.54677">
        <ele>307.3</ele>
        <time>2022-08-21T08:26:30.000Z</time>
      </trkpt>
      <trkpt lat="47.63582" lon="6.54722">
        <ele>305</ele>
        <time>2022-08-21T08:26:37.000Z</time>
      </trkpt>
      <trkpt lat="47.63504" lon="6.54848">
        <ele>297.9</ele>
        <time>2022-08-21T08:26:51.000Z</time>
      </trkpt>
      <trkpt lat="47.63478" lon="6.54902">
        <ele>296.4</ele>
        <time>2022-08-21T08:26:56.000Z</time>
      </trkpt>
      <trkpt lat="47.63466" lon="6.54947">
        <ele>295.8</ele>
        <time>2022-08-21T08:27:00.000Z</time>
      </trkpt>
      <trkpt lat="47.63465" lon="6.55032">
        <ele>295</ele>
        <time>2022-08-21T08:27:08.000Z</time>
      </trkpt>
      <trkpt lat="47.63459" lon="6.55053">
        <ele>295</ele>
        <time>2022-08-21T08:27:11.000Z</time>
      </trkpt>
      <trkpt lat="47.63452" lon="6.55063">
        <ele>295</ele>
        <time>2022-08-21T08:27:13.000Z</time>
      </trkpt>
      <trkpt lat="47.63299" lon="6.55157">
        <ele>293.1</ele>
        <time>2022-08-21T08:27:37.000Z</time>
      </trkpt>
      <trkpt lat="47.63202" lon="6.55221">
        <ele>291</ele>
        <time>2022-08-21T08:27:59.000Z</time>
      </trkpt>
      <trkpt lat="47.63179" lon="6.55228">
        <ele>291.5</ele>
        <time>2022-08-21T08:28:03.000Z</time>
      </trkpt>
      <trkpt lat="47.63143" lon="6.55232">
        <ele>292.8</ele>
        <time>2022-08-21T08:28:09.000Z</time>
      </trkpt>
      <trkpt lat="47.63004" lon="6.55234">
        <ele>295.5</ele>
        <time>2022-08-21T08:28:34.000Z</time>
      </trkpt>
      <trkpt lat="47.62988" lon="6.55242">
        <ele>295.3</ele>
        <time>2022-08-21T08:28:38.000Z</time>
      </trkpt>
      <trkpt lat="47.62977" lon="6.55257">
        <ele>294.6</ele>
        <time>2022-08-21T08:28:41.000Z</time>
      </trkpt>
      <trkpt lat="47.62963" lon="6.55296">
        <ele>293.4</ele>
        <time>2022-08-21T08:28:46.000Z</time>
      </trkpt>
      <trkpt lat="47.62953" lon="6.55334">
        <ele>291.3</ele>
        <time>2022-08-21T08:28:50.000Z</time>
      </trkpt>
      <trkpt lat="47.62951" lon="6.55364">
        <ele>289.9</ele>
        <time>2022-08-21T08:28:53.000Z</time>
      </trkpt>
      <trkpt lat="47.62953" lon="6.55393">
        <ele>289.2</ele>
        <time>2022-08-21T08:28:56.000Z</time>
      </trkpt>
      <trkpt lat="47.62992" lon="6.55517">
        <ele>289.6</ele>
        <time>2022-08-21T08:29:10.000Z</time>
      </trkpt>
      <trkpt lat="47.63005" lon="6.55539">
        <ele>290.8</ele>
        <time>2022-08-21T08:29:14.000Z</time>
      </trkpt>
      <trkpt lat="47.6304" lon="6.55574">
        <ele>293.4</ele>
        <time>2022-08-21T08:29:26.000Z</time>
      </trkpt>
      <trkpt lat="47.63055" lon="6.55625">
        <ele>293.9</ele>
        <time>2022-08-21T08:29:38.000Z</time>
      </trkpt>
      <trkpt lat="47.63089" lon="6.55697">
        <ele>296.1</ele>
        <time>2022-08-21T08:29:55.000Z</time>
      </trkpt>
      <trkpt lat="47.63104" lon="6.55739">
        <ele>297.9</ele>
        <time>2022-08-21T08:30:03.000Z</time>
      </trkpt>
      <trkpt lat="47.63156" lon="6.55933">
        <ele>304.8</ele>
        <time>2022-08-21T08:30:49.000Z</time>
      </trkpt>
      <trkpt lat="47.63174" lon="6.56013">
        <ele>305.7</ele>
        <time>2022-08-21T08:31:20.000Z</time>
      </trkpt>
      <trkpt lat="47.63184" lon="6.56118">
        <ele>303.8</ele>
        <time>2022-08-21T08:31:42.000Z</time>
      </trkpt>
      <trkpt lat="47.63186" lon="6.562">
        <ele>300.2</ele>
        <time>2022-08-21T08:31:54.000Z</time>
      </trkpt>
      <trkpt lat="47.63192" lon="6.56224">
        <ele>297.2</ele>
        <time>2022-08-21T08:32:27.000Z</time>
      </trkpt>
      <trkpt lat="47.63184" lon="6.56222">
        <ele>296.6</ele>
        <time>2022-08-21T08:32:43.000Z</time>
      </trkpt>
      <trkpt lat="47.63181" lon="6.5623">
        <ele>294.4</ele>
        <time>2022-08-21T08:32:51.000Z</time>
      </trkpt>
      <trkpt lat="47.63199" lon="6.56259">
        <ele>289.9</ele>
        <time>2022-08-21T08:33:09.000Z</time>
      </trkpt>
      <trkpt lat="47.63201" lon="6.56257">
        <ele>290.2</ele>
        <time>2022-08-21T08:33:23.000Z</time>
      </trkpt>
      <trkpt lat="47.63196" lon="6.56246">
        <ele>291.3</ele>
        <time>2022-08-21T08:33:38.000Z</time>
      </trkpt>
      <trkpt lat="47.63202" lon="6.56239">
        <ele>293.9</ele>
        <time>2022-08-21T08:33:52.000Z</time>
      </trkpt>
      <trkpt lat="47.63207" lon="6.56241">
        <ele>293.7</ele>
        <time>2022-08-21T08:34:03.000Z</time>
      </trkpt>
      <trkpt lat="47.63214" lon="6.56231">
        <ele>297.3</ele>
        <time>2022-08-21T08:34:23.000Z</time>
      </trkpt>
      <trkpt lat="47.63274" lon="6.56238">
        <ele>299.3</ele>
        <time>2022-08-21T08:34:48.000Z</time>
      </trkpt>
      <trkpt lat="47.63338" lon="6.56257">
        <ele>299.1</ele>
        <time>2022-08-21T08:35:09.000Z</time>
      </trkpt>
      <trkpt lat="47.63385" lon="6.56297">
        <ele>298.4</ele>
        <time>2022-08-21T08:35:23.000Z</time>
      </trkpt>
      <trkpt lat="47.63433" lon="6.56386">
        <ele>295.2</ele>
        <time>2022-08-21T08:35:39.000Z</time>
      </trkpt>
      <trkpt lat="47.63452" lon="6.56412">
        <ele>294.5</ele>
        <time>2022-08-21T08:35:44.000Z</time>
      </trkpt>
      <trkpt lat="47.6347" lon="6.56425">
        <ele>295.7</ele>
        <time>2022-08-21T08:35:48.000Z</time>
      </trkpt>
      <trkpt lat="47.63508" lon="6.56438">
        <ele>293.5</ele>
        <time>2022-08-21T08:35:56.000Z</time>
      </trkpt>
      <trkpt lat="47.63525" lon="6.56455">
        <ele>292.9</ele>
        <time>2022-08-21T08:36:01.000Z</time>
      </trkpt>
      <trkpt lat="47.63525" lon="6.56471">
        <ele>292.9</ele>
        <time>2022-08-21T08:36:04.000Z</time>
      </trkpt>
      <trkpt lat="47.63533" lon="6.5648">
        <ele>295.6</ele>
        <time>2022-08-21T08:36:08.000Z</time>
      </trkpt>
      <trkpt lat="47.63534" lon="6.56491">
        <ele>298.6</ele>
        <time>2022-08-21T08:36:10.000Z</time>
      </trkpt>
      <trkpt lat="47.63524" lon="6.56504">
        <ele>298.8</ele>
        <time>2022-08-21T08:36:12.000Z</time>
      </trkpt>
      <trkpt lat="47.63474" lon="6.56541">
        <ele>294.2</ele>
        <time>2022-08-21T08:36:24.000Z</time>
      </trkpt>
      <trkpt lat="47.63465" lon="6.56554">
        <ele>294.6</ele>
        <time>2022-08-21T08:36:28.000Z</time>
      </trkpt>
      <trkpt lat="47.6346" lon="6.5657">
        <ele>294.1</ele>
        <time>2022-08-21T08:36:52.000Z</time>
      </trkpt>
      <trkpt lat="47.63464" lon="6.56562">
        <ele>294.7</ele>
        <time>2022-08-21T08:37:01.000Z</time>
      </trkpt>
      <trkpt lat="47.63471" lon="6.56566">
        <ele>296.2</ele>
        <time>2022-08-21T08:37:08.000Z</time>
      </trkpt>
      <trkpt lat="47.63484" lon="6.56594">
        <ele>298.6</ele>
        <time>2022-08-21T08:37:22.000Z</time>
      </trkpt>
      <trkpt lat="47.63518" lon="6.56629">
        <ele>303.6</ele>
        <time>2022-08-21T08:37:46.000Z</time>
      </trkpt>
      <trkpt lat="47.63531" lon="6.56634">
        <ele>305.7</ele>
        <time>2022-08-21T08:37:54.000Z</time>
      </trkpt>
      <trkpt lat="47.6356" lon="6.56633">
        <ele>309.9</ele>
        <time>2022-08-21T08:38:18.000Z</time>
      </trkpt>
      <trkpt lat="47.63585" lon="6.56613">
        <ele>314.1</ele>
        <time>2022-08-21T08:38:41.000Z</time>
      </trkpt>
      <trkpt lat="47.636" lon="6.56609">
        <ele>315.2</ele>
        <time>2022-08-21T08:38:53.000Z</time>
      </trkpt>
      <trkpt lat="47.63616" lon="6.56596">
        <ele>316.6</ele>
        <time>2022-08-21T08:39:08.000Z</time>
      </trkpt>
      <trkpt lat="47.63641" lon="6.56589">
        <ele>319.3</ele>
        <time>2022-08-21T08:39:22.000Z</time>
      </trkpt>
      <trkpt lat="47.63677" lon="6.56559">
        <ele>321.8</ele>
        <time>2022-08-21T08:39:40.000Z</time>
      </trkpt>
      <trkpt lat="47.63685" lon="6.56559">
        <ele>322.4</ele>
        <time>2022-08-21T08:39:45.000Z</time>
      </trkpt>
      <trkpt lat="47.63694" lon="6.56591">
        <ele>324</ele>
        <time>2022-08-21T08:39:57.000Z</time>
      </trkpt>
      <trkpt lat="47.63711" lon="6.5663">
        <ele>325.8</ele>
        <time>2022-08-21T08:40:10.000Z</time>
      </trkpt>
      <trkpt lat="47.63741" lon="6.56676">
        <ele>329.3</ele>
        <time>2022-08-21T08:40:27.000Z</time>
      </trkpt>
      <trkpt lat="47.63767" lon="6.56734">
        <ele>330.4</ele>
        <time>2022-08-21T08:40:45.000Z</time>
      </trkpt>
      <trkpt lat="47.63819" lon="6.56825">
        <ele>333.3</ele>
        <time>2022-08-21T08:41:13.000Z</time>
      </trkpt>
      <trkpt lat="47.63828" lon="6.56848">
        <ele>333</ele>
        <time>2022-08-21T08:41:23.000Z</time>
      </trkpt>
      <trkpt lat="47.63829" lon="6.56858">
        <ele>332.7</ele>
        <time>2022-08-21T08:41:30.000Z</time>
      </trkpt>
      <trkpt lat="47.63832" lon="6.56858">
        <ele>333</ele>
        <time>2022-08-21T08:41:33.000Z</time>
      </trkpt>
      <trkpt lat="47.63844" lon="6.56877">
        <ele>333.9</ele>
        <time>2022-08-21T08:41:44.000Z</time>
      </trkpt>
      <trkpt lat="47.6387" lon="6.56923">
        <ele>334.7</ele>
        <time>2022-08-21T08:41:58.000Z</time>
      </trkpt>
      <trkpt lat="47.63881" lon="6.56949">
        <ele>333.9</ele>
        <time>2022-08-21T08:42:04.000Z</time>
      </trkpt>
      <trkpt lat="47.6389" lon="6.56984">
        <ele>331.8</ele>
        <time>2022-08-21T08:42:14.000Z</time>
      </trkpt>
      <trkpt lat="47.63894" lon="6.56988">
        <ele>331.6</ele>
        <time>2022-08-21T08:42:18.000Z</time>
      </trkpt>
      <trkpt lat="47.63919" lon="6.56987">
        <ele>333</ele>
        <time>2022-08-21T08:42:31.000Z</time>
      </trkpt>
      <trkpt lat="47.63965" lon="6.56962">
        <ele>335.4</ele>
        <time>2022-08-21T08:42:52.000Z</time>
      </trkpt>
      <trkpt lat="47.64" lon="6.56908">
        <ele>336</ele>
        <time>2022-08-21T08:43:15.000Z</time>
      </trkpt>
      <trkpt lat="47.64016" lon="6.56877">
        <ele>334.9</ele>
        <time>2022-08-21T08:43:26.000Z</time>
      </trkpt>
      <trkpt lat="47.64042" lon="6.56844">
        <ele>331.9</ele>
        <time>2022-08-21T08:43:35.000Z</time>
      </trkpt>
      <trkpt lat="47.64089" lon="6.568">
        <ele>326.1</ele>
        <time>2022-08-21T08:43:51.000Z</time>
      </trkpt>
      <trkpt lat="47.64107" lon="6.56795">
        <ele>323.7</ele>
        <time>2022-08-21T08:43:58.000Z</time>
      </trkpt>
      <trkpt lat="47.64129" lon="6.56843">
        <ele>322.4</ele>
        <time>2022-08-21T08:44:15.000Z</time>
      </trkpt>
      <trkpt lat="47.64214" lon="6.56949">
        <ele>312.7</ele>
        <time>2022-08-21T08:44:37.000Z</time>
      </trkpt>
      <trkpt lat="47.64223" lon="6.56966">
        <ele>311.1</ele>
        <time>2022-08-21T08:44:40.000Z</time>
      </trkpt>
      <trkpt lat="47.64225" lon="6.56983">
        <ele>309.5</ele>
        <time>2022-08-21T08:44:43.000Z</time>
      </trkpt>
      <trkpt lat="47.64229" lon="6.56989">
        <ele>308.5</ele>
        <time>2022-08-21T08:44:44.000Z</time>
      </trkpt>
      <trkpt lat="47.6422" lon="6.57005">
        <ele>307.6</ele>
        <time>2022-08-21T08:44:47.000Z</time>
      </trkpt>
      <trkpt lat="47.64191" lon="6.57037">
        <ele>306.8</ele>
        <time>2022-08-21T08:44:54.000Z</time>
      </trkpt>
      <trkpt lat="47.64177" lon="6.57042">
        <ele>308.5</ele>
        <time>2022-08-21T08:44:58.000Z</time>
      </trkpt>
      <trkpt lat="47.64167" lon="6.57051">
        <ele>308.6</ele>
        <time>2022-08-21T08:45:01.000Z</time>
      </trkpt>
      <trkpt lat="47.6416" lon="6.57075">
        <ele>308</ele>
        <time>2022-08-21T08:45:07.000Z</time>
      </trkpt>
      <trkpt lat="47.64163" lon="6.57095">
        <ele>305.2</ele>
        <time>2022-08-21T08:45:12.000Z</time>
      </trkpt>
      <trkpt lat="47.64186" lon="6.5712">
        <ele>301.2</ele>
        <time>2022-08-21T08:45:19.000Z</time>
      </trkpt>
      <trkpt lat="47.64252" lon="6.57175">
        <ele>295.7</ele>
        <time>2022-08-21T08:45:35.000Z</time>
      </trkpt>
      <trkpt lat="47.64273" lon="6.57201">
        <ele>295</ele>
        <time>2022-08-21T08:45:41.000Z</time>
      </trkpt>
      <trkpt lat="47.64298" lon="6.57241">
        <ele>295.5</ele>
        <time>2022-08-21T08:45:54.000Z</time>
      </trkpt>
      <trkpt lat="47.64304" lon="6.5724">
        <ele>295.9</ele>
        <time>2022-08-21T08:45:59.000Z</time>
      </trkpt>
      <trkpt lat="47.64318" lon="6.5723">
        <ele>296.9</ele>
        <time>2022-08-21T08:46:08.000Z</time>
      </trkpt>
      <trkpt lat="47.64359" lon="6.57193">
        <ele>300</ele>
        <time>2022-08-21T08:46:33.000Z</time>
      </trkpt>
      <trkpt lat="47.64371" lon="6.57187">
        <ele>300.9</ele>
        <time>2022-08-21T08:46:38.000Z</time>
      </trkpt>
      <trkpt lat="47.64381" lon="6.57188">
        <ele>301.5</ele>
        <time>2022-08-21T08:46:43.000Z</time>
      </trkpt>
      <trkpt lat="47.64387" lon="6.57198">
        <ele>301.7</ele>
        <time>2022-08-21T08:46:48.000Z</time>
      </trkpt>
      <trkpt lat="47.64425" lon="6.57324">
        <ele>301.8</ele>
        <time>2022-08-21T08:47:22.000Z</time>
      </trkpt>
      <trkpt lat="47.64431" lon="6.57332">
        <ele>302</ele>
        <time>2022-08-21T08:47:25.000Z</time>
      </trkpt>
      <trkpt lat="47.64442" lon="6.57334">
        <ele>302.8</ele>
        <time>2022-08-21T08:47:29.000Z</time>
      </trkpt>
      <trkpt lat="47.64461" lon="6.57314">
        <ele>304.2</ele>
        <time>2022-08-21T08:47:36.000Z</time>
      </trkpt>
      <trkpt lat="47.64511" lon="6.57229">
        <ele>308.4</ele>
        <time>2022-08-21T08:48:03.000Z</time>
      </trkpt>
      <trkpt lat="47.64554" lon="6.57164">
        <ele>308</ele>
        <time>2022-08-21T08:48:23.000Z</time>
      </trkpt>
      <trkpt lat="47.64565" lon="6.57153">
        <ele>308</ele>
        <time>2022-08-21T08:48:27.000Z</time>
      </trkpt>
      <trkpt lat="47.64576" lon="6.57152">
        <ele>308</ele>
        <time>2022-08-21T08:48:31.000Z</time>
      </trkpt>
      <trkpt lat="47.64616" lon="6.57196">
        <ele>309.1</ele>
        <time>2022-08-21T08:48:44.000Z</time>
      </trkpt>
      <trkpt lat="47.64653" lon="6.57245">
        <ele>310.8</ele>
        <time>2022-08-21T08:48:57.000Z</time>
      </trkpt>
      <trkpt lat="47.64711" lon="6.57293">
        <ele>312.2</ele>
        <time>2022-08-21T08:49:14.000Z</time>
      </trkpt>
      <trkpt lat="47.64739" lon="6.57321">
        <ele>312.2</ele>
        <time>2022-08-21T08:49:23.000Z</time>
      </trkpt>
      <trkpt lat="47.64759" lon="6.57346">
        <ele>312.2</ele>
        <time>2022-08-21T08:49:30.000Z</time>
      </trkpt>
      <trkpt lat="47.64793" lon="6.57406">
        <ele>311.8</ele>
        <time>2022-08-21T08:49:43.000Z</time>
      </trkpt>
      <trkpt lat="47.6481" lon="6.57425">
        <ele>312</ele>
        <time>2022-08-21T08:49:48.000Z</time>
      </trkpt>
      <trkpt lat="47.6485" lon="6.57447">
        <ele>312</ele>
        <time>2022-08-21T08:49:57.000Z</time>
      </trkpt>
      <trkpt lat="47.64919" lon="6.5746">
        <ele>312.1</ele>
        <time>2022-08-21T08:50:10.000Z</time>
      </trkpt>
      <trkpt lat="47.64944" lon="6.57468">
        <ele>313</ele>
        <time>2022-08-21T08:50:15.000Z</time>
      </trkpt>
      <trkpt lat="47.64973" lon="6.57487">
        <ele>313</ele>
        <time>2022-08-21T08:50:21.000Z</time>
      </trkpt>
      <trkpt lat="47.65018" lon="6.57526">
        <ele>314</ele>
        <time>2022-08-21T08:50:31.000Z</time>
      </trkpt>
      <trkpt lat="47.65041" lon="6.57551">
        <ele>314</ele>
        <time>2022-08-21T08:50:37.000Z</time>
      </trkpt>
      <trkpt lat="47.65069" lon="6.5759">
        <ele>314.6</ele>
        <time>2022-08-21T08:50:46.000Z</time>
      </trkpt>
      <trkpt lat="47.65099" lon="6.57658">
        <ele>314.8</ele>
        <time>2022-08-21T08:51:03.000Z</time>
      </trkpt>
      <trkpt lat="47.65122" lon="6.57663">
        <ele>315.9</ele>
        <time>2022-08-21T08:51:10.000Z</time>
      </trkpt>
      <trkpt lat="47.65311" lon="6.5768">
        <ele>319</ele>
        <time>2022-08-21T08:51:48.000Z</time>
      </trkpt>
      <trkpt lat="47.65378" lon="6.57701">
        <ele>319.2</ele>
        <time>2022-08-21T08:52:03.000Z</time>
      </trkpt>
      <trkpt lat="47.65427" lon="6.57708">
        <ele>320</ele>
        <time>2022-08-21T08:52:13.000Z</time>
      </trkpt>
      <trkpt lat="47.65449" lon="6.57703">
        <ele>319.5</ele>
        <time>2022-08-21T08:52:18.000Z</time>
      </trkpt>
      <trkpt lat="47.65463" lon="6.57688">
        <ele>319</ele>
        <time>2022-08-21T08:52:22.000Z</time>
      </trkpt>
      <trkpt lat="47.65547" lon="6.57541">
        <ele>315.5</ele>
        <time>2022-08-21T08:52:45.000Z</time>
      </trkpt>
      <trkpt lat="47.65658" lon="6.57366">
        <ele>310.2</ele>
        <time>2022-08-21T08:53:06.000Z</time>
      </trkpt>
      <trkpt lat="47.6577" lon="6.57203">
        <ele>310.7</ele>
        <time>2022-08-21T08:53:26.000Z</time>
      </trkpt>
      <trkpt lat="47.65841" lon="6.57107">
        <ele>309.9</ele>
        <time>2022-08-21T08:53:41.000Z</time>
      </trkpt>
      <trkpt lat="47.65868" lon="6.57086">
        <ele>310.6</ele>
        <time>2022-08-21T08:53:47.000Z</time>
      </trkpt>
      <trkpt lat="47.65871" lon="6.57088">
        <ele>311.2</ele>
        <time>2022-08-21T08:53:48.000Z</time>
      </trkpt>
      <trkpt lat="47.65884" lon="6.57156">
        <ele>310.3</ele>
        <time>2022-08-21T08:54:00.000Z</time>
      </trkpt>
      <trkpt lat="47.65887" lon="6.57162">
        <ele>310.1</ele>
        <time>2022-08-21T08:54:02.000Z</time>
      </trkpt>
      <trkpt lat="47.65889" lon="6.57157">
        <ele>310</ele>
        <time>2022-08-21T08:54:04.000Z</time>
      </trkpt>
      <trkpt lat="47.65912" lon="6.57139">
        <ele>309.2</ele>
        <time>2022-08-21T08:54:10.000Z</time>
      </trkpt>
      <trkpt lat="47.65983" lon="6.57059">
        <ele>308.9</ele>
        <time>2022-08-21T08:54:24.000Z</time>
      </trkpt>
      <trkpt lat="47.66155" lon="6.56884">
        <ele>313</ele>
        <time>2022-08-21T08:55:00.000Z</time>
      </trkpt>
      <trkpt lat="47.66263" lon="6.56756">
        <ele>319.4</ele>
        <time>2022-08-21T08:55:32.000Z</time>
      </trkpt>
      <trkpt lat="47.66329" lon="6.5669">
        <ele>320.8</ele>
        <time>2022-08-21T08:55:55.000Z</time>
      </trkpt>
      <trkpt lat="47.66366" lon="6.5664">
        <ele>321.2</ele>
        <time>2022-08-21T08:56:08.000Z</time>
      </trkpt>
      <trkpt lat="47.6641" lon="6.56592">
        <ele>322.7</ele>
        <time>2022-08-21T08:56:22.000Z</time>
      </trkpt>
      <trkpt lat="47.66446" lon="6.56541">
        <ele>325</ele>
        <time>2022-08-21T08:56:34.000Z</time>
      </trkpt>
      <trkpt lat="47.66482" lon="6.56509">
        <ele>326.4</ele>
        <time>2022-08-21T08:56:45.000Z</time>
      </trkpt>
      <trkpt lat="47.66503" lon="6.56482">
        <ele>326.6</ele>
        <time>2022-08-21T08:56:55.000Z</time>
      </trkpt>
      <trkpt lat="47.66515" lon="6.56477">
        <ele>326.8</ele>
        <time>2022-08-21T08:57:00.000Z</time>
      </trkpt>
      <trkpt lat="47.66533" lon="6.56477">
        <ele>326.7</ele>
        <time>2022-08-21T08:57:06.000Z</time>
      </trkpt>
      <trkpt lat="47.66565" lon="6.56488">
        <ele>325.6</ele>
        <time>2022-08-21T08:57:17.000Z</time>
      </trkpt>
      <trkpt lat="47.66616" lon="6.56494">
        <ele>324.8</ele>
        <time>2022-08-21T08:57:29.000Z</time>
      </trkpt>
      <trkpt lat="47.66688" lon="6.56511">
        <ele>323.1</ele>
        <time>2022-08-21T08:57:42.000Z</time>
      </trkpt>
      <trkpt lat="47.66726" lon="6.56514">
        <ele>323</ele>
        <time>2022-08-21T08:57:49.000Z</time>
      </trkpt>
      <trkpt lat="47.66763" lon="6.56498">
        <ele>322.5</ele>
        <time>2022-08-21T08:57:57.000Z</time>
      </trkpt>
      <trkpt lat="47.66956" lon="6.56394">
        <ele>317.6</ele>
        <time>2022-08-21T08:58:32.000Z</time>
      </trkpt>
      <trkpt lat="47.67029" lon="6.56362">
        <ele>315.9</ele>
        <time>2022-08-21T08:58:45.000Z</time>
      </trkpt>
      <trkpt lat="47.6705" lon="6.56362">
        <ele>315.2</ele>
        <time>2022-08-21T08:58:50.000Z</time>
      </trkpt>
      <trkpt lat="47.67055" lon="6.56368">
        <ele>314.8</ele>
        <time>2022-08-21T08:58:52.000Z</time>
      </trkpt>
      <trkpt lat="47.67059" lon="6.56383">
        <ele>314</ele>
        <time>2022-08-21T08:58:55.000Z</time>
      </trkpt>
      <trkpt lat="47.67098" lon="6.56632">
        <ele>312.9</ele>
        <time>2022-08-21T08:59:28.000Z</time>
      </trkpt>
      <trkpt lat="47.67112" lon="6.56746">
        <ele>313</ele>
        <time>2022-08-21T08:59:45.000Z</time>
      </trkpt>
      <trkpt lat="47.67112" lon="6.56768">
        <ele>313.6</ele>
        <time>2022-08-21T08:59:49.000Z</time>
      </trkpt>
      <trkpt lat="47.67109" lon="6.56784">
        <ele>314.1</ele>
        <time>2022-08-21T08:59:53.000Z</time>
      </trkpt>
      <trkpt lat="47.67098" lon="6.56801">
        <ele>314.5</ele>
        <time>2022-08-21T09:00:00.000Z</time>
      </trkpt>
      <trkpt lat="47.67055" lon="6.56835">
        <ele>317</ele>
        <time>2022-08-21T09:00:19.000Z</time>
      </trkpt>
      <trkpt lat="47.67031" lon="6.56871">
        <ele>317.9</ele>
        <time>2022-08-21T09:00:33.000Z</time>
      </trkpt>
      <trkpt lat="47.66998" lon="6.56896">
        <ele>319</ele>
        <time>2022-08-21T09:00:47.000Z</time>
      </trkpt>
      <trkpt lat="47.66968" lon="6.56909">
        <ele>319.1</ele>
        <time>2022-08-21T09:01:00.000Z</time>
      </trkpt>
      <trkpt lat="47.66926" lon="6.56941">
        <ele>320.4</ele>
        <time>2022-08-21T09:01:18.000Z</time>
      </trkpt>
      <trkpt lat="47.66863" lon="6.56958">
        <ele>322.5</ele>
        <time>2022-08-21T09:01:41.000Z</time>
      </trkpt>
      <trkpt lat="47.66831" lon="6.56974">
        <ele>323.2</ele>
        <time>2022-08-21T09:02:00.000Z</time>
      </trkpt>
      <trkpt lat="47.66844" lon="6.56975">
        <ele>323.1</ele>
        <time>2022-08-21T09:02:09.000Z</time>
      </trkpt>
      <trkpt lat="47.66859" lon="6.5697">
        <ele>322.9</ele>
        <time>2022-08-21T09:02:15.000Z</time>
      </trkpt>
      <trkpt lat="47.66888" lon="6.56956">
        <ele>322</ele>
        <time>2022-08-21T09:02:25.000Z</time>
      </trkpt>
      <trkpt lat="47.66942" lon="6.5692">
        <ele>320.2</ele>
        <time>2022-08-21T09:02:46.000Z</time>
      </trkpt>
      <trkpt lat="47.67012" lon="6.56895">
        <ele>318.7</ele>
        <time>2022-08-21T09:03:15.000Z</time>
      </trkpt>
      <trkpt lat="47.67053" lon="6.56834">
        <ele>317.1</ele>
        <time>2022-08-21T09:03:51.000Z</time>
      </trkpt>
      <trkpt lat="47.67068" lon="6.56825">
        <ele>316</ele>
        <time>2022-08-21T09:04:00.000Z</time>
      </trkpt>
      <trkpt lat="47.67073" lon="6.56828">
        <ele>315.7</ele>
        <time>2022-08-21T09:04:16.000Z</time>
      </trkpt>
      <trkpt lat="47.67068" lon="6.56865">
        <ele>316.6</ele>
        <time>2022-08-21T09:04:31.000Z</time>
      </trkpt>
      <trkpt lat="47.67076" lon="6.56971">
        <ele>318.3</ele>
        <time>2022-08-21T09:05:01.000Z</time>
      </trkpt>
      <trkpt lat="47.67073" lon="6.57031">
        <ele>319.4</ele>
        <time>2022-08-21T09:05:14.000Z</time>
      </trkpt>
      <trkpt lat="47.67087" lon="6.57232">
        <ele>321.9</ele>
        <time>2022-08-21T09:05:59.000Z</time>
      </trkpt>
      <trkpt lat="47.6708" lon="6.57355">
        <ele>323.1</ele>
        <time>2022-08-21T09:06:22.000Z</time>
      </trkpt>
      <trkpt lat="47.67085" lon="6.57468">
        <ele>325</ele>
        <time>2022-08-21T09:06:47.000Z</time>
      </trkpt>
      <trkpt lat="47.67083" lon="6.57513">
        <ele>326</ele>
        <time>2022-08-21T09:06:58.000Z</time>
      </trkpt>
      <trkpt lat="47.67079" lon="6.57522">
        <ele>326.1</ele>
        <time>2022-08-21T09:07:01.000Z</time>
      </trkpt>
      <trkpt lat="47.67071" lon="6.57529">
        <ele>326.5</ele>
        <time>2022-08-21T09:07:04.000Z</time>
      </trkpt>
      <trkpt lat="47.67014" lon="6.57553">
        <ele>327.4</ele>
        <time>2022-08-21T09:07:25.000Z</time>
      </trkpt>
      <trkpt lat="47.6691" lon="6.57563">
        <ele>330.4</ele>
        <time>2022-08-21T09:07:53.000Z</time>
      </trkpt>
      <trkpt lat="47.66903" lon="6.57565">
        <ele>330.7</ele>
        <time>2022-08-21T09:07:56.000Z</time>
      </trkpt>
      <trkpt lat="47.669" lon="6.57571">
        <ele>330.8</ele>
        <time>2022-08-21T09:07:59.000Z</time>
      </trkpt>
      <trkpt lat="47.66908" lon="6.57595">
        <ele>331.1</ele>
        <time>2022-08-21T09:08:06.000Z</time>
      </trkpt>
      <trkpt lat="47.66933" lon="6.57645">
        <ele>331.4</ele>
        <time>2022-08-21T09:08:20.000Z</time>
      </trkpt>
      <trkpt lat="47.66943" lon="6.57689">
        <ele>331.8</ele>
        <time>2022-08-21T09:08:34.000Z</time>
      </trkpt>
      <trkpt lat="47.66956" lon="6.57727">
        <ele>331.8</ele>
        <time>2022-08-21T09:08:48.000Z</time>
      </trkpt>
      <trkpt lat="47.66995" lon="6.57821">
        <ele>332.2</ele>
        <time>2022-08-21T09:09:21.000Z</time>
      </trkpt>
      <trkpt lat="47.67002" lon="6.57827">
        <ele>331.9</ele>
        <time>2022-08-21T09:09:32.000Z</time>
      </trkpt>
      <trkpt lat="47.67024" lon="6.57832">
        <ele>331.1</ele>
        <time>2022-08-21T09:09:48.000Z</time>
      </trkpt>
      <trkpt lat="47.67031" lon="6.57857">
        <ele>331.8</ele>
        <time>2022-08-21T09:10:02.000Z</time>
      </trkpt>
      <trkpt lat="47.67035" lon="6.57863">
        <ele>331.7</ele>
        <time>2022-08-21T09:10:15.000Z</time>
      </trkpt>
      <trkpt lat="47.6704" lon="6.5786">
        <ele>331.5</ele>
        <time>2022-08-21T09:10:27.000Z</time>
      </trkpt>
      <trkpt lat="47.6703" lon="6.57854">
        <ele>331.7</ele>
        <time>2022-08-21T09:11:03.000Z</time>
      </trkpt>
      <trkpt lat="47.67026" lon="6.57859">
        <ele>332</ele>
        <time>2022-08-21T09:11:15.000Z</time>
      </trkpt>
      <trkpt lat="47.67021" lon="6.57856">
        <ele>332</ele>
        <time>2022-08-21T09:11:21.000Z</time>
      </trkpt>
      <trkpt lat="47.67003" lon="6.57826">
        <ele>331.9</ele>
        <time>2022-08-21T09:11:41.000Z</time>
      </trkpt>
      <trkpt lat="47.6699" lon="6.57788">
        <ele>331.7</ele>
        <time>2022-08-21T09:11:57.000Z</time>
      </trkpt>
      <trkpt lat="47.66974" lon="6.57763">
        <ele>331.9</ele>
        <time>2022-08-21T09:12:08.000Z</time>
      </trkpt>
      <trkpt lat="47.66961" lon="6.57735">
        <ele>331.8</ele>
        <time>2022-08-21T09:12:22.000Z</time>
      </trkpt>
      <trkpt lat="47.66962" lon="6.57713">
        <ele>331.4</ele>
        <time>2022-08-21T09:12:31.000Z</time>
      </trkpt>
      <trkpt lat="47.66957" lon="6.57691">
        <ele>331.5</ele>
        <time>2022-08-21T09:12:36.000Z</time>
      </trkpt>
      <trkpt lat="47.66906" lon="6.5759">
        <ele>331.1</ele>
        <time>2022-08-21T09:13:02.000Z</time>
      </trkpt>
      <trkpt lat="47.66896" lon="6.57578">
        <ele>330.9</ele>
        <time>2022-08-21T09:13:08.000Z</time>
      </trkpt>
      <trkpt lat="47.66866" lon="6.5756">
        <ele>330.3</ele>
        <time>2022-08-21T09:13:19.000Z</time>
      </trkpt>
      <trkpt lat="47.66836" lon="6.57557">
        <ele>329.2</ele>
        <time>2022-08-21T09:13:26.000Z</time>
      </trkpt>
      <trkpt lat="47.66768" lon="6.57577">
        <ele>327.6</ele>
        <time>2022-08-21T09:13:37.000Z</time>
      </trkpt>
      <trkpt lat="47.66739" lon="6.57591">
        <ele>326.6</ele>
        <time>2022-08-21T09:13:42.000Z</time>
      </trkpt>
      <trkpt lat="47.66712" lon="6.57614">
        <ele>325.6</ele>
        <time>2022-08-21T09:13:48.000Z</time>
      </trkpt>
      <trkpt lat="47.6668" lon="6.57652">
        <ele>325.2</ele>
        <time>2022-08-21T09:13:56.000Z</time>
      </trkpt>
      <trkpt lat="47.66669" lon="6.57672">
        <ele>325.1</ele>
        <time>2022-08-21T09:14:00.000Z</time>
      </trkpt>
      <trkpt lat="47.66666" lon="6.5769">
        <ele>325</ele>
        <time>2022-08-21T09:14:04.000Z</time>
      </trkpt>
      <trkpt lat="47.66671" lon="6.577">
        <ele>325.2</ele>
        <time>2022-08-21T09:14:07.000Z</time>
      </trkpt>
      <trkpt lat="47.66681" lon="6.57709">
        <ele>325.5</ele>
        <time>2022-08-21T09:14:10.000Z</time>
      </trkpt>
      <trkpt lat="47.66822" lon="6.57803">
        <ele>330.6</ele>
        <time>2022-08-21T09:14:52.000Z</time>
      </trkpt>
      <trkpt lat="47.6689" lon="6.57844">
        <ele>332.7</ele>
        <time>2022-08-21T09:15:16.000Z</time>
      </trkpt>
      <trkpt lat="47.66942" lon="6.57883">
        <ele>333.2</ele>
        <time>2022-08-21T09:15:34.000Z</time>
      </trkpt>
      <trkpt lat="47.66958" lon="6.57901">
        <ele>333</ele>
        <time>2022-08-21T09:15:40.000Z</time>
      </trkpt>
      <trkpt lat="47.66971" lon="6.57926">
        <ele>333</ele>
        <time>2022-08-21T09:15:46.000Z</time>
      </trkpt>
      <trkpt lat="47.66984" lon="6.57964">
        <ele>333</ele>
        <time>2022-08-21T09:15:54.000Z</time>
      </trkpt>
      <trkpt lat="47.66994" lon="6.58022">
        <ele>331.8</ele>
        <time>2022-08-21T09:16:06.000Z</time>
      </trkpt>
      <trkpt lat="47.67008" lon="6.58042">
        <ele>331.4</ele>
        <time>2022-08-21T09:16:12.000Z</time>
      </trkpt>
      <trkpt lat="47.67064" lon="6.58084">
        <ele>332.6</ele>
        <time>2022-08-21T09:16:31.000Z</time>
      </trkpt>
      <trkpt lat="47.67114" lon="6.58138">
        <ele>334</ele>
        <time>2022-08-21T09:16:46.000Z</time>
      </trkpt>
      <trkpt lat="47.67177" lon="6.58193">
        <ele>334</ele>
        <time>2022-08-21T09:17:03.000Z</time>
      </trkpt>
      <trkpt lat="47.67213" lon="6.58235">
        <ele>332.1</ele>
        <time>2022-08-21T09:17:14.000Z</time>
      </trkpt>
      <trkpt lat="47.67242" lon="6.5826">
        <ele>332.7</ele>
        <time>2022-08-21T09:17:23.000Z</time>
      </trkpt>
      <trkpt lat="47.67301" lon="6.58292">
        <ele>333.1</ele>
        <time>2022-08-21T09:17:44.000Z</time>
      </trkpt>
      <trkpt lat="47.67345" lon="6.5831">
        <ele>330.7</ele>
        <time>2022-08-21T09:18:01.000Z</time>
      </trkpt>
      <trkpt lat="47.67376" lon="6.58346">
        <ele>330.4</ele>
        <time>2022-08-21T09:18:12.000Z</time>
      </trkpt>
      <trkpt lat="47.67425" lon="6.58381">
        <ele>330.5</ele>
        <time>2022-08-21T09:18:31.000Z</time>
      </trkpt>
      <trkpt lat="47.67436" lon="6.5841">
        <ele>329.9</ele>
        <time>2022-08-21T09:18:38.000Z</time>
      </trkpt>
      <trkpt lat="47.67452" lon="6.58536">
        <ele>326.5</ele>
        <time>2022-08-21T09:19:01.000Z</time>
      </trkpt>
      <trkpt lat="47.67485" lon="6.58643">
        <ele>323.9</ele>
        <time>2022-08-21T09:19:25.000Z</time>
      </trkpt>
      <trkpt lat="47.67479" lon="6.58652">
        <ele>323.6</ele>
        <time>2022-08-21T09:19:30.000Z</time>
      </trkpt>
      <trkpt lat="47.6744" lon="6.5867">
        <ele>321.9</ele>
        <time>2022-08-21T09:19:41.000Z</time>
      </trkpt>
      <trkpt lat="47.67424" lon="6.58675">
        <ele>321.7</ele>
        <time>2022-08-21T09:19:48.000Z</time>
      </trkpt>
      <trkpt lat="47.67419" lon="6.58672">
        <ele>321.8</ele>
        <time>2022-08-21T09:19:59.000Z</time>
      </trkpt>
      <trkpt lat="47.67418" lon="6.58686">
        <ele>321.3</ele>
        <time>2022-08-21T09:20:09.000Z</time>
      </trkpt>
      <trkpt lat="47.67422" lon="6.58693">
        <ele>321.1</ele>
        <time>2022-08-21T09:20:16.000Z</time>
      </trkpt>
      <trkpt lat="47.67442" lon="6.58691">
        <ele>321.1</ele>
        <time>2022-08-21T09:20:31.000Z</time>
      </trkpt>
      <trkpt lat="47.67454" lon="6.58706">
        <ele>321.3</ele>
        <time>2022-08-21T09:20:39.000Z</time>
      </trkpt>
      <trkpt lat="47.67473" lon="6.58761">
        <ele>322</ele>
        <time>2022-08-21T09:20:58.000Z</time>
      </trkpt>
      <trkpt lat="47.67478" lon="6.58808">
        <ele>322.1</ele>
        <time>2022-08-21T09:21:15.000Z</time>
      </trkpt>
      <trkpt lat="47.67498" lon="6.58828">
        <ele>322.1</ele>
        <time>2022-08-21T09:21:52.000Z</time>
      </trkpt>
      <trkpt lat="47.67486" lon="6.58826">
        <ele>321.8</ele>
        <time>2022-08-21T09:22:38.000Z</time>
      </trkpt>
      <trkpt lat="47.67481" lon="6.58808">
        <ele>322.2</ele>
        <time>2022-08-21T09:22:47.000Z</time>
      </trkpt>
      <trkpt lat="47.67484" lon="6.58735">
        <ele>322.4</ele>
        <time>2022-08-21T09:23:10.000Z</time>
      </trkpt>
      <trkpt lat="47.67475" lon="6.58705">
        <ele>322.2</ele>
        <time>2022-08-21T09:23:21.000Z</time>
      </trkpt>
      <trkpt lat="47.67481" lon="6.58681">
        <ele>323</ele>
        <time>2022-08-21T09:23:30.000Z</time>
      </trkpt>
      <trkpt lat="47.67493" lon="6.58661">
        <ele>323.8</ele>
        <time>2022-08-21T09:23:39.000Z</time>
      </trkpt>
      <trkpt lat="47.67494" lon="6.58649">
        <ele>323.9</ele>
        <time>2022-08-21T09:23:44.000Z</time>
      </trkpt>
      <trkpt lat="47.67475" lon="6.58603">
        <ele>325.3</ele>
        <time>2022-08-21T09:23:59.000Z</time>
      </trkpt>
      <trkpt lat="47.67446" lon="6.5843">
        <ele>329.5</ele>
        <time>2022-08-21T09:24:46.000Z</time>
      </trkpt>
      <trkpt lat="47.67433" lon="6.58386">
        <ele>330.6</ele>
        <time>2022-08-21T09:25:01.000Z</time>
      </trkpt>
      <trkpt lat="47.67419" lon="6.58371">
        <ele>330.7</ele>
        <time>2022-08-21T09:25:09.000Z</time>
      </trkpt>
      <trkpt lat="47.67379" lon="6.58348">
        <ele>330.4</ele>
        <time>2022-08-21T09:25:26.000Z</time>
      </trkpt>
      <trkpt lat="47.67361" lon="6.58317">
        <ele>330.6</ele>
        <time>2022-08-21T09:25:39.000Z</time>
      </trkpt>
      <trkpt lat="47.67347" lon="6.58305">
        <ele>331</ele>
        <time>2022-08-21T09:25:45.000Z</time>
      </trkpt>
      <trkpt lat="47.67305" lon="6.58293">
        <ele>333</ele>
        <time>2022-08-21T09:26:03.000Z</time>
      </trkpt>
      <trkpt lat="47.67279" lon="6.58278">
        <ele>334</ele>
        <time>2022-08-21T09:26:18.000Z</time>
      </trkpt>
      <trkpt lat="47.67269" lon="6.58281">
        <ele>333.3</ele>
        <time>2022-08-21T09:26:23.000Z</time>
      </trkpt>
      <trkpt lat="47.67261" lon="6.58295">
        <ele>332.6</ele>
        <time>2022-08-21T09:26:28.000Z</time>
      </trkpt>
      <trkpt lat="47.67256" lon="6.58326">
        <ele>331.5</ele>
        <time>2022-08-21T09:26:34.000Z</time>
      </trkpt>
      <trkpt lat="47.67256" lon="6.58365">
        <ele>330.1</ele>
        <time>2022-08-21T09:26:40.000Z</time>
      </trkpt>
      <trkpt lat="47.67266" lon="6.58464">
        <ele>327.3</ele>
        <time>2022-08-21T09:26:53.000Z</time>
      </trkpt>
      <trkpt lat="47.6727" lon="6.58576">
        <ele>325</ele>
        <time>2022-08-21T09:27:11.000Z</time>
      </trkpt>
      <trkpt lat="47.67282" lon="6.58688">
        <ele>323.3</ele>
        <time>2022-08-21T09:27:26.000Z</time>
      </trkpt>
      <trkpt lat="47.67281" lon="6.58726">
        <ele>322.1</ele>
        <time>2022-08-21T09:27:32.000Z</time>
      </trkpt>
      <trkpt lat="47.67268" lon="6.58806">
        <ele>320.7</ele>
        <time>2022-08-21T09:27:45.000Z</time>
      </trkpt>
      <trkpt lat="47.67269" lon="6.5883">
        <ele>320.7</ele>
        <time>2022-08-21T09:27:50.000Z</time>
      </trkpt>
      <trkpt lat="47.67274" lon="6.58849">
        <ele>320.4</ele>
        <time>2022-08-21T09:27:55.000Z</time>
      </trkpt>
      <trkpt lat="47.67311" lon="6.58882">
        <ele>318.7</ele>
        <time>2022-08-21T09:28:05.000Z</time>
      </trkpt>
      <trkpt lat="47.67356" lon="6.58946">
        <ele>317.5</ele>
        <time>2022-08-21T09:28:15.000Z</time>
      </trkpt>
      <trkpt lat="47.67371" lon="6.58956">
        <ele>320</ele>
        <time>2022-08-21T09:28:18.000Z</time>
      </trkpt>
      <trkpt lat="47.67411" lon="6.58972">
        <ele>323.8</ele>
        <time>2022-08-21T09:28:26.000Z</time>
      </trkpt>
      <trkpt lat="47.67428" lon="6.58985">
        <ele>325.4</ele>
        <time>2022-08-21T09:28:31.000Z</time>
      </trkpt>
      <trkpt lat="47.67477" lon="6.59073">
        <ele>329.8</ele>
        <time>2022-08-21T09:29:00.000Z</time>
      </trkpt>
      <trkpt lat="47.6751" lon="6.59111">
        <ele>332.4</ele>
        <time>2022-08-21T09:29:15.000Z</time>
      </trkpt>
      <trkpt lat="47.67537" lon="6.59136">
        <ele>334.2</ele>
        <time>2022-08-21T09:29:29.000Z</time>
      </trkpt>
      <trkpt lat="47.67551" lon="6.59162">
        <ele>335.5</ele>
        <time>2022-08-21T09:29:41.000Z</time>
      </trkpt>
      <trkpt lat="47.67579" lon="6.5917">
        <ele>336.1</ele>
        <time>2022-08-21T09:29:56.000Z</time>
      </trkpt>
      <trkpt lat="47.67598" lon="6.59184">
        <ele>337.3</ele>
        <time>2022-08-21T09:30:04.000Z</time>
      </trkpt>
      <trkpt lat="47.67634" lon="6.59232">
        <ele>340.2</ele>
        <time>2022-08-21T09:30:25.000Z</time>
      </trkpt>
      <trkpt lat="47.67727" lon="6.5934">
        <ele>346.2</ele>
        <time>2022-08-21T09:31:00.000Z</time>
      </trkpt>
      <trkpt lat="47.67768" lon="6.59399">
        <ele>348.6</ele>
        <time>2022-08-21T09:31:16.000Z</time>
      </trkpt>
      <trkpt lat="47.67794" lon="6.59446">
        <ele>349</ele>
        <time>2022-08-21T09:31:29.000Z</time>
      </trkpt>
      <trkpt lat="47.67839" lon="6.59546">
        <ele>349.2</ele>
        <time>2022-08-21T09:32:00.000Z</time>
      </trkpt>
      <trkpt lat="47.67865" lon="6.59592">
        <ele>349.1</ele>
        <time>2022-08-21T09:32:22.000Z</time>
      </trkpt>
      <trkpt lat="47.68034" lon="6.59852">
        <ele>347.7</ele>
        <time>2022-08-21T09:33:19.000Z</time>
      </trkpt>
      <trkpt lat="47.6811" lon="6.59945">
        <ele>348.9</ele>
        <time>2022-08-21T09:33:38.000Z</time>
      </trkpt>
      <trkpt lat="47.68259" lon="6.60107">
        <ele>350.7</ele>
        <time>2022-08-21T09:34:16.000Z</time>
      </trkpt>
      <trkpt lat="47.68272" lon="6.60127">
        <ele>351.6</ele>
        <time>2022-08-21T09:34:20.000Z</time>
      </trkpt>
      <trkpt lat="47.68288" lon="6.60168">
        <ele>351.7</ele>
        <time>2022-08-21T09:34:28.000Z</time>
      </trkpt>
      <trkpt lat="47.683" lon="6.60185">
        <ele>351.9</ele>
        <time>2022-08-21T09:34:32.000Z</time>
      </trkpt>
      <trkpt lat="47.68316" lon="6.602">
        <ele>352.6</ele>
        <time>2022-08-21T09:34:37.000Z</time>
      </trkpt>
      <trkpt lat="47.68352" lon="6.60225">
        <ele>354.3</ele>
        <time>2022-08-21T09:34:48.000Z</time>
      </trkpt>
      <trkpt lat="47.68373" lon="6.60251">
        <ele>354.8</ele>
        <time>2022-08-21T09:34:56.000Z</time>
      </trkpt>
      <trkpt lat="47.68433" lon="6.60366">
        <ele>355.6</ele>
        <time>2022-08-21T09:35:17.000Z</time>
      </trkpt>
      <trkpt lat="47.68491" lon="6.60455">
        <ele>358.6</ele>
        <time>2022-08-21T09:35:39.000Z</time>
      </trkpt>
      <trkpt lat="47.68549" lon="6.60582">
        <ele>360.5</ele>
        <time>2022-08-21T09:36:11.000Z</time>
      </trkpt>
      <trkpt lat="47.68564" lon="6.606">
        <ele>361.6</ele>
        <time>2022-08-21T09:36:17.000Z</time>
      </trkpt>
      <trkpt lat="47.68605" lon="6.60626">
        <ele>363.2</ele>
        <time>2022-08-21T09:36:28.000Z</time>
      </trkpt>
      <trkpt lat="47.68616" lon="6.60644">
        <ele>363.1</ele>
        <time>2022-08-21T09:36:33.000Z</time>
      </trkpt>
      <trkpt lat="47.68626" lon="6.60691">
        <ele>362.6</ele>
        <time>2022-08-21T09:36:41.000Z</time>
      </trkpt>
      <trkpt lat="47.68628" lon="6.60724">
        <ele>361.9</ele>
        <time>2022-08-21T09:36:46.000Z</time>
      </trkpt>
      <trkpt lat="47.68627" lon="6.60742">
        <ele>361.3</ele>
        <time>2022-08-21T09:36:49.000Z</time>
      </trkpt>
      <trkpt lat="47.68619" lon="6.60762">
        <ele>361</ele>
        <time>2022-08-21T09:36:53.000Z</time>
      </trkpt>
      <trkpt lat="47.68585" lon="6.60815">
        <ele>358.7</ele>
        <time>2022-08-21T09:37:03.000Z</time>
      </trkpt>
      <trkpt lat="47.68579" lon="6.60836">
        <ele>357.9</ele>
        <time>2022-08-21T09:37:07.000Z</time>
      </trkpt>
      <trkpt lat="47.68584" lon="6.60848">
        <ele>358</ele>
        <time>2022-08-21T09:37:10.000Z</time>
      </trkpt>
      <trkpt lat="47.68616" lon="6.6086">
        <ele>356.7</ele>
        <time>2022-08-21T09:37:16.000Z</time>
      </trkpt>
      <trkpt lat="47.68691" lon="6.60863">
        <ele>352.1</ele>
        <time>2022-08-21T09:37:24.000Z</time>
      </trkpt>
      <trkpt lat="47.68721" lon="6.60868">
        <ele>352</ele>
        <time>2022-08-21T09:37:27.000Z</time>
      </trkpt>
      <trkpt lat="47.68747" lon="6.60886">
        <ele>349.4</ele>
        <time>2022-08-21T09:37:30.000Z</time>
      </trkpt>
      <trkpt lat="47.68821" lon="6.6096">
        <ele>345.1</ele>
        <time>2022-08-21T09:37:38.000Z</time>
      </trkpt>
      <trkpt lat="47.68865" lon="6.60987">
        <ele>342.6</ele>
        <time>2022-08-21T09:37:42.000Z</time>
      </trkpt>
      <trkpt lat="47.68955" lon="6.61023">
        <ele>340.1</ele>
        <time>2022-08-21T09:37:50.000Z</time>
      </trkpt>
      <trkpt lat="47.69098" lon="6.61055">
        <ele>332</ele>
        <time>2022-08-21T09:38:03.000Z</time>
      </trkpt>
      <trkpt lat="47.69129" lon="6.61069">
        <ele>331.2</ele>
        <time>2022-08-21T09:38:06.000Z</time>
      </trkpt>
      <trkpt lat="47.6918" lon="6.61099">
        <ele>330.3</ele>
        <time>2022-08-21T09:38:12.000Z</time>
      </trkpt>
      <trkpt lat="47.69204" lon="6.61105">
        <ele>330.8</ele>
        <time>2022-08-21T09:38:15.000Z</time>
      </trkpt>
      <trkpt lat="47.69228" lon="6.61103">
        <ele>330.7</ele>
        <time>2022-08-21T09:38:18.000Z</time>
      </trkpt>
      <trkpt lat="47.69284" lon="6.61087">
        <ele>330.1</ele>
        <time>2022-08-21T09:38:26.000Z</time>
      </trkpt>
      <trkpt lat="47.69338" lon="6.61088">
        <ele>330</ele>
        <time>2022-08-21T09:38:34.000Z</time>
      </trkpt>
      <trkpt lat="47.69358" lon="6.61083">
        <ele>330</ele>
        <time>2022-08-21T09:38:37.000Z</time>
      </trkpt>
      <trkpt lat="47.69385" lon="6.61068">
        <ele>330</ele>
        <time>2022-08-21T09:38:41.000Z</time>
      </trkpt>
      <trkpt lat="47.69498" lon="6.60983">
        <ele>329.6</ele>
        <time>2022-08-21T09:38:59.000Z</time>
      </trkpt>
      <trkpt lat="47.69563" lon="6.60954">
        <ele>329.4</ele>
        <time>2022-08-21T09:39:12.000Z</time>
      </trkpt>
      <trkpt lat="47.69585" lon="6.60953">
        <ele>330.3</ele>
        <time>2022-08-21T09:39:17.000Z</time>
      </trkpt>
      <trkpt lat="47.69596" lon="6.60961">
        <ele>330.8</ele>
        <time>2022-08-21T09:39:20.000Z</time>
      </trkpt>
      <trkpt lat="47.69605" lon="6.60976">
        <ele>331</ele>
        <time>2022-08-21T09:39:23.000Z</time>
      </trkpt>
      <trkpt lat="47.69633" lon="6.61063">
        <ele>331</ele>
        <time>2022-08-21T09:39:36.000Z</time>
      </trkpt>
      <trkpt lat="47.69661" lon="6.61263">
        <ele>332</ele>
        <time>2022-08-21T09:40:07.000Z</time>
      </trkpt>
      <trkpt lat="47.69669" lon="6.61273">
        <ele>332.1</ele>
        <time>2022-08-21T09:40:12.000Z</time>
      </trkpt>
      <trkpt lat="47.69688" lon="6.61274">
        <ele>332.7</ele>
        <time>2022-08-21T09:40:39.000Z</time>
      </trkpt>
    </trkseg>
  </trk>
</gpx>